Observation data for Happy on 06/16/2019      Previous  Date  Next       Current Mesonet Observations  Soil Data  Daily Summary Page  Observations in Plain Language
KHA2 160500Z 10005KT 17/12 A2994 RMK A01 T01720118  RH  070%=      5-min Rain = 0
KHA2 160501Z 12005KT 17/11 A2994 RMK A01 T01710114  RH  069%=      5-min Rain = 0
KHA2 160502Z 13006KT 17/11 A2994 RMK A01 T01690113  RH  069%=      5-min Rain = 0
KHA2 160503Z 12005KT 17/11 A2995 RMK A01 T01680112  RH  070%=      5-min Rain = 0
KHA2 160504Z 12006KT 17/11 A2995 RMK A01 T01670112  RH  070%=      5-min Rain = 0
KHA2 160505Z 13007KT 17/11 A2995 RMK A01 T01660112  RH  070%=      5-min Rain = 0
KHA2 160506Z 12007KT 16/11 A2995 RMK A01 T01640112  RH  071%=      5-min Rain = 0
KHA2 160507Z 12007KT 16/11 A2995 RMK A01 T01630112  RH  072%=      5-min Rain = 0
KHA2 160508Z 12007KT 16/11 A2996 RMK A01 T01630112  RH  072%=      5-min Rain = 0
KHA2 160509Z 11007KT 16/11 A2996 RMK A01 T01630113  RH  072%=      5-min Rain = 0
KHA2 160510Z 11006KT 16/11 A2996 RMK A01 T01630112  RH  072%=      5-min Rain = 0
KHA2 160511Z 10005KT 16/11 A2996 RMK A01 T01640113  RH  072%=      5-min Rain = 0
KHA2 160512Z 08004KT 17/11 A2996 RMK A01 T01650114  RH  072%=      5-min Rain = 0
KHA2 160513Z 09004KT 17/12 A2996 RMK A01 T01660116  RH  072%=      5-min Rain = 0
KHA2 160514Z 09004KT 17/12 A2996 RMK A01 T01670116  RH  072%=      5-min Rain = 0
KHA2 160515Z 08003KT 17/12 A2996 RMK A01 T01680116  RH  071%=      5-min Rain = 0
KHA2 160516Z 08003KT 17/12 A2996 RMK A01 T01680116  RH  071%=      5-min Rain = 0
KHA2 160517Z 09003KT 17/12 A2996 RMK A01 T01680115  RH  071%=      5-min Rain = 0
KHA2 160518Z 07003KT 17/11 A2996 RMK A01 T01690114  RH  070%=      5-min Rain = 0
KHA2 160519Z 08004KT 17/11 A2996 RMK A01 T01690113  RH  070%=      5-min Rain = 0
KHA2 160520Z 08004KT 17/12 A2996 RMK A01 T01690115  RH  070%=      5-min Rain = 0
KHA2 160521Z 08003KT 17/12 A2997 RMK A01 T01700117  RH  071%=      5-min Rain = 0
KHA2 160522Z 08003KT 17/12 A2997 RMK A01 T01690117  RH  071%=      5-min Rain = 0
KHA2 160523Z 09003KT 17/12 A2997 RMK A01 T01690116  RH  071%=      5-min Rain = 0
KHA2 160524Z 09002KT 17/12 A2996 RMK A01 T01690116  RH  071%=      5-min Rain = 0
KHA2 160525Z 10002KT 17/11 A2996 RMK A01 T01680114  RH  070%=      5-min Rain = 0
KHA2 160526Z 10002KT 17/11 A2996 RMK A01 T01680113  RH  070%=      5-min Rain = 0
KHA2 160527Z 10001KT 17/11 A2996 RMK A01 T01680112  RH  070%=      5-min Rain = 0
KHA2 160528Z 11002KT 17/11 A2996 RMK A01 T01670111  RH  070%=      5-min Rain = 0
KHA2 160529Z 10002KT 17/11 A2996 RMK A01 T01670111  RH  070%=      5-min Rain = 0
KHA2 160530Z 09002KT 17/11 A2997 RMK A01 T01660111  RH  070%=      5-min Rain = 0
KHA2 160531Z 12002KT 17/11 A2996 RMK A01 T01660111  RH  070%=      5-min Rain = 0
KHA2 160532Z 13003KT 17/11 A2996 RMK A01 T01660111  RH  070%=      5-min Rain = 0
KHA2 160533Z 12004KT 17/11 A2996 RMK A01 T01650111  RH  070%=      5-min Rain = 0
KHA2 160534Z 11003KT 16/11 A2996 RMK A01 T01640111  RH  071%=      5-min Rain = 0
KHA2 160535Z 10003KT 16/11 A2996 RMK A01 T01630111  RH  071%=      5-min Rain = 0
KHA2 160536Z 10004KT 16/11 A2996 RMK A01 T01620111  RH  072%=      5-min Rain = 0
KHA2 160537Z 11004KT 16/11 A2996 RMK A01 T01610111  RH  072%=      5-min Rain = 0
KHA2 160538Z 11005KT 16/11 A2996 RMK A01 T01610111  RH  072%=      5-min Rain = 0
KHA2 160539Z 12005KT 16/11 A2997 RMK A01 T01610111  RH  072%=      5-min Rain = 0
KHA2 160540Z 14006KT 16/11 A2997 RMK A01 T01590111  RH  073%=      5-min Rain = 0
KHA2 160541Z 14006KT 16/11 A2997 RMK A01 T01580111  RH  073%=      5-min Rain = 0
KHA2 160542Z 13006KT 16/11 A2997 RMK A01 T01570111  RH  074%=      5-min Rain = 0
KHA2 160543Z 13006KT 16/11 A2997 RMK A01 T01560111  RH  074%=      5-min Rain = 0
KHA2 160544Z 12006KT 16/11 A2997 RMK A01 T01550111  RH  075%=      5-min Rain = 0
KHA2 160545Z 12006KT 15/11 A2997 RMK A01 T01540111  RH  076%=      5-min Rain = 0
KHA2 160546Z 12005KT 15/11 A2997 RMK A01 T01540111  RH  076%=      5-min Rain = 0
KHA2 160547Z 12005KT 15/11 A2997 RMK A01 T01540111  RH  076%=      5-min Rain = 0
KHA2 160548Z 12005KT 15/11 A2997 RMK A01 T01540111  RH  076%=      5-min Rain = 0
KHA2 160549Z 12005KT 15/11 A2997 RMK A01 T01540111  RH  076%=      5-min Rain = 0
KHA2 160550Z 12005KT 15/11 A2997 RMK A01 T01540111  RH  075%=      5-min Rain = 0
KHA2 160551Z 12005KT 15/11 A2997 RMK A01 T01540110  RH  075%=      5-min Rain = 0
KHA2 160552Z 12005KT 16/11 A2997 RMK A01 T01550110  RH  075%=      5-min Rain = 0
KHA2 160553Z 11005KT 16/11 A2997 RMK A01 T01550110  RH  075%=      5-min Rain = 0
KHA2 160554Z 12005KT 16/11 A2997 RMK A01 T01560110  RH  074%=      5-min Rain = 0
KHA2 160555Z 13005KT 16/11 A2997 RMK A01 T01570111  RH  074%=      5-min Rain = 0
KHA2 160556Z 12005KT 16/11 A2997 RMK A01 T01580111  RH  074%=      5-min Rain = 0
KHA2 160557Z 12005KT 16/11 A2997 RMK A01 T01580110  RH  073%=      5-min Rain = 0
KHA2 160558Z 13006KT 16/11 A2997 RMK A01 T01580110  RH  073%=      5-min Rain = 0
KHA2 160559Z 12005KT 16/11 A2997 RMK A01 T01580111  RH  073%=      5-min Rain = 0
KHA2 160600Z 11005KT 16/11 A2997 RMK A01 T01580111  RH  073%=      5-min Rain = 0
KHA2 160601Z 11005KT 16/11 A2997 RMK A01 T01590112  RH  074%=      5-min Rain = 0
KHA2 160602Z 11005KT 16/11 A2997 RMK A01 T01590112  RH  074%=      5-min Rain = 0
KHA2 160603Z 10004KT 16/11 A2997 RMK A01 T01590113  RH  074%=      5-min Rain = 0
KHA2 160604Z 10004KT 16/11 A2997 RMK A01 T01590112  RH  073%=      5-min Rain = 0
KHA2 160605Z 11004KT 16/11 A2997 RMK A01 T01590112  RH  073%=      5-min Rain = 0
KHA2 160606Z 11004KT 16/11 A2997 RMK A01 T01590112  RH  073%=      5-min Rain = 0
KHA2 160607Z 11004KT 16/11 A2997 RMK A01 T01600112  RH  073%=      5-min Rain = 0
KHA2 160608Z 11003KT 16/11 A2997 RMK A01 T01590111  RH  073%=      5-min Rain = 0
KHA2 160609Z 11003KT 16/11 A2997 RMK A01 T01590112  RH  074%=      5-min Rain = 0
KHA2 160610Z 11002KT 16/11 A2997 RMK A01 T01580111  RH  074%=      5-min Rain = 0
KHA2 160611Z 12002KT 16/11 A2997 RMK A01 T01580110  RH  073%=      5-min Rain = 0
KHA2 160612Z 12003KT 16/11 A2997 RMK A01 T01570109  RH  073%=      5-min Rain = 0
KHA2 160613Z 11002KT 16/11 A2997 RMK A01 T01570108  RH  073%=      5-min Rain = 0
KHA2 160614Z 11002KT 16/11 A2997 RMK A01 T01570109  RH  073%=      5-min Rain = 0
KHA2 160615Z 11002KT 16/11 A2996 RMK A01 T01560109  RH  073%=      5-min Rain = 0
KHA2 160616Z 12002KT 16/11 A2996 RMK A01 T01560108  RH  073%=      5-min Rain = 0
KHA2 160617Z 12002KT 16/11 A2996 RMK A01 T01560108  RH  073%=      5-min Rain = 0
KHA2 160618Z 12002KT 16/11 A2996 RMK A01 T01560108  RH  073%=      5-min Rain = 0
KHA2 160619Z 12001KT 16/11 A2996 RMK A01 T01570108  RH  073%=      5-min Rain = 0
KHA2 160620Z 12002KT 16/11 A2996 RMK A01 T01570108  RH  073%=      5-min Rain = 0
KHA2 160621Z 11002KT 16/11 A2996 RMK A01 T01560108  RH  073%=      5-min Rain = 0
KHA2 160622Z 11002KT 16/11 A2996 RMK A01 T01570109  RH  073%=      5-min Rain = 0
KHA2 160623Z 11002KT 16/11 A2996 RMK A01 T01570108  RH  073%=      5-min Rain = 0
KHA2 160624Z 11002KT 16/11 A2996 RMK A01 T01570108  RH  073%=      5-min Rain = 0
KHA2 160625Z 11002KT 16/11 A2996 RMK A01 T01570107  RH  072%=      5-min Rain = 0
KHA2 160626Z 11002KT 16/11 A2996 RMK A01 T01570106  RH  072%=      5-min Rain = 0
KHA2 160627Z 11002KT 16/11 A2996 RMK A01 T01570107  RH  072%=      5-min Rain = 0
KHA2 160628Z 11002KT 16/11 A2995 RMK A01 T01570107  RH  072%=      5-min Rain = 0
KHA2 160629Z 12002KT 16/11 A2995 RMK A01 T01580108  RH  072%=      5-min Rain = 0
KHA2 160630Z 13002KT 16/11 A2995 RMK A01 T01580108  RH  072%=      5-min Rain = 0
KHA2 160631Z 13002KT 16/11 A2995 RMK A01 T01590109  RH  072%=      5-min Rain = 0
KHA2 160632Z 13002KT 16/11 A2995 RMK A01 T01590109  RH  072%=      5-min Rain = 0
KHA2 160633Z 14002KT 16/11 A2995 RMK A01 T01600108  RH  071%=      5-min Rain = 0
KHA2 160634Z 14002KT 16/11 A2995 RMK A01 T01610108  RH  071%=      5-min Rain = 0
KHA2 160635Z 14003KT 16/11 A2995 RMK A01 T01610108  RH  071%=      5-min Rain = 0
KHA2 160636Z 14003KT 16/11 A2995 RMK A01 T01610109  RH  071%=      5-min Rain = 0
KHA2 160637Z 14003KT 16/11 A2995 RMK A01 T01620111  RH  072%=      5-min Rain = 0
KHA2 160638Z 14003KT 16/11 A2995 RMK A01 T01620111  RH  071%=      5-min Rain = 0
KHA2 160639Z 15003KT 16/11 A2995 RMK A01 T01620109  RH  071%=      5-min Rain = 0
KHA2 160640Z 15003KT 16/11 A2995 RMK A01 T01620111  RH  071%=      5-min Rain = 0
KHA2 160641Z 16004KT 16/11 A2995 RMK A01 T01620112  RH  072%=      5-min Rain = 0
KHA2 160642Z 16004KT 16/11 A2995 RMK A01 T01610112  RH  073%=      5-min Rain = 0
KHA2 160643Z 16004KT 16/11 A2995 RMK A01 T01610113  RH  073%=      5-min Rain = 0
KHA2 160644Z 17004KT 16/11 A2995 RMK A01 T01600112  RH  073%=      5-min Rain = 0
KHA2 160645Z 17004KT 16/11 A2995 RMK A01 T01590112  RH  073%=      5-min Rain = 0
KHA2 160646Z 17004KT 16/11 A2995 RMK A01 T01590112  RH  073%=      5-min Rain = 0
KHA2 160647Z 17004KT 16/11 A2995 RMK A01 T01590112  RH  074%=      5-min Rain = 0
KHA2 160648Z 16004KT 16/11 A2995 RMK A01 T01580112  RH  074%=      5-min Rain = 0
KHA2 160649Z 16004KT 16/11 A2995 RMK A01 T01590113  RH  074%=      5-min Rain = 0
KHA2 160650Z 16004KT 16/11 A2995 RMK A01 T01580113  RH  074%=      5-min Rain = 0
KHA2 160651Z 16004KT 16/11 A2995 RMK A01 T01580112  RH  074%=      5-min Rain = 0
KHA2 160652Z 16004KT 16/11 A2995 RMK A01 T01580111  RH  073%=      5-min Rain = 0
KHA2 160653Z 17004KT 16/11 A2995 RMK A01 T01590111  RH  073%=      5-min Rain = 0
KHA2 160654Z 17003KT 16/11 A2995 RMK A01 T01590111  RH  073%=      5-min Rain = 0
KHA2 160655Z 17003KT 16/11 A2995 RMK A01 T01600110  RH  072%=      5-min Rain = 0
KHA2 160656Z 17003KT 16/11 A2994 RMK A01 T01600110  RH  072%=      5-min Rain = 0
KHA2 160657Z 17003KT 16/11 A2994 RMK A01 T01600110  RH  072%=      5-min Rain = 0
KHA2 160658Z 18003KT 16/11 A2994 RMK A01 T01600110  RH  072%=      5-min Rain = 0
KHA2 160659Z 18003KT 16/11 A2994 RMK A01 T01600110  RH  072%=      5-min Rain = 0
KHA2 160700Z 18003KT 16/11 A2994 RMK A01 T01600109  RH  072%=      5-min Rain = 0
KHA2 160701Z 19003KT 16/11 A2994 RMK A01 T01610110  RH  072%=      5-min Rain = 0
KHA2 160702Z 19003KT 16/11 A2994 RMK A01 T01610109  RH  071%=      5-min Rain = 0
KHA2 160703Z 19003KT 16/11 A2994 RMK A01 T01620109  RH  071%=      5-min Rain = 0
KHA2 160704Z 19003KT 16/11 A2994 RMK A01 T01630110  RH  071%=      5-min Rain = 0
KHA2 160705Z 19003KT 16/11 A2994 RMK A01 T01640109  RH  070%=      5-min Rain = 0
KHA2 160706Z 18003KT 17/11 A2994 RMK A01 T01650109  RH  070%=      5-min Rain = 0
KHA2 160707Z 18003KT 17/11 A2994 RMK A01 T01650109  RH  070%=      5-min Rain = 0
KHA2 160708Z 20003KT 17/11 A2994 RMK A01 T01650110  RH  070%=      5-min Rain = 0
KHA2 160709Z 22003KT 17/11 A2994 RMK A01 T01660111  RH  070%=      5-min Rain = 0
KHA2 160710Z 22003KT 17/11 A2994 RMK A01 T01660111  RH  070%=      5-min Rain = 0
KHA2 160711Z 21003KT 17/11 A2994 RMK A01 T01660111  RH  070%=      5-min Rain = 0
KHA2 160712Z 20004KT 17/11 A2994 RMK A01 T01650112  RH  071%=      5-min Rain = 0
KHA2 160713Z 19004KT 16/11 A2994 RMK A01 T01640114  RH  072%=      5-min Rain = 0
KHA2 160714Z 18004KT 16/12 A2994 RMK A01 T01640115  RH  073%=      5-min Rain = 0
KHA2 160715Z 18004KT 16/12 A2994 RMK A01 T01620115  RH  074%=      5-min Rain = 0
KHA2 160716Z 18004KT 16/12 A2994 RMK A01 T01610115  RH  074%=      5-min Rain = 0
KHA2 160717Z 19005KT 16/12 A2995 RMK A01 T01600115  RH  075%=      5-min Rain = 0
KHA2 160718Z 19005KT 16/12 A2995 RMK A01 T01590115  RH  075%=      5-min Rain = 0
KHA2 160719Z 19004KT 16/11 A2995 RMK A01 T01590114  RH  075%=      5-min Rain = 0
KHA2 160720Z 20004KT 16/11 A2995 RMK A01 T01590113  RH  074%=      5-min Rain = 0
KHA2 160721Z 20004KT 16/11 A2995 RMK A01 T01590113  RH  074%=      5-min Rain = 0
KHA2 160722Z 20004KT 16/11 A2995 RMK A01 T01590111  RH  073%=      5-min Rain = 0
KHA2 160723Z 21003KT 16/11 A2995 RMK A01 T01590110  RH  073%=      5-min Rain = 0
KHA2 160724Z 21003KT 16/11 A2995 RMK A01 T01600110  RH  072%=      5-min Rain = 0
KHA2 160725Z 20003KT 16/11 A2995 RMK A01 T01600110  RH  072%=      5-min Rain = 0
KHA2 160726Z 20004KT 16/11 A2995 RMK A01 T01610110  RH  072%=      5-min Rain = 0
KHA2 160727Z 20004KT 16/11 A2995 RMK A01 T01610111  RH  072%=      5-min Rain = 0
KHA2 160728Z 21004KT 16/11 A2995 RMK A01 T01610111  RH  072%=      5-min Rain = 0
KHA2 160729Z 21004KT 16/11 A2995 RMK A01 T01610111  RH  072%=      5-min Rain = 0
KHA2 160730Z 21005KT 16/11 A2995 RMK A01 T01610111  RH  072%=      5-min Rain = 0
KHA2 160731Z 21005KT 16/11 A2995 RMK A01 T01610112  RH  073%=      5-min Rain = 0
KHA2 160732Z 21005KT 16/11 A2995 RMK A01 T01620112  RH  072%=      5-min Rain = 0
KHA2 160733Z 21005KT 16/11 A2996 RMK A01 T01620113  RH  073%=      5-min Rain = 0
KHA2 160734Z 20005KT 16/11 A2996 RMK A01 T01620113  RH  073%=      5-min Rain = 0
KHA2 160735Z 21006KT 16/11 A2996 RMK A01 T01620114  RH  073%=      5-min Rain = 0
KHA2 160736Z 22006KT 16/11 A2996 RMK A01 T01630114  RH  073%=      5-min Rain = 0
KHA2 160737Z 23006KT 16/11 A2996 RMK A01 T01630112  RH  072%=      5-min Rain = 0
KHA2 160738Z 23005KT 16/11 A2996 RMK A01 T01630112  RH  072%=      5-min Rain = 0
KHA2 160739Z 23005KT 16/11 A2996 RMK A01 T01630112  RH  071%=      5-min Rain = 0
KHA2 160740Z 23004KT 16/11 A2996 RMK A01 T01630111  RH  071%=      5-min Rain = 0
KHA2 160741Z 23004KT 16/11 A2996 RMK A01 T01630112  RH  071%=      5-min Rain = 0
KHA2 160742Z 23004KT 16/11 A2996 RMK A01 T01630112  RH  071%=      5-min Rain = 0
KHA2 160743Z 22004KT 16/11 A2996 RMK A01 T01640111  RH  071%=      5-min Rain = 0
KHA2 160744Z 22004KT 16/11 A2996 RMK A01 T01630111  RH  071%=      5-min Rain = 0
KHA2 160745Z 22004KT 16/11 A2996 RMK A01 T01630112  RH  071%=      5-min Rain = 0
KHA2 160746Z 22004KT 16/11 A2997 RMK A01 T01640113  RH  072%=      5-min Rain = 0
KHA2 160747Z 22004KT 16/11 A2997 RMK A01 T01630112  RH  072%=      5-min Rain = 0
KHA2 160748Z 21004KT 16/11 A2997 RMK A01 T01630113  RH  072%=      5-min Rain = 0
KHA2 160749Z 19004KT 16/11 A2997 RMK A01 T01630114  RH  073%=      5-min Rain = 0
KHA2 160750Z 18004KT 16/12 A2996 RMK A01 T01620116  RH  074%=      5-min Rain = 0
KHA2 160751Z 16004KT 16/12 A2996 RMK A01 T01620116  RH  074%=      5-min Rain = 0
KHA2 160752Z 16005KT 16/12 A2996 RMK A01 T01610116  RH  075%=      5-min Rain = 0
KHA2 160753Z 17005KT 16/12 A2996 RMK A01 T01610117  RH  075%=      5-min Rain = 0
KHA2 160754Z 18004KT 16/12 A2997 RMK A01 T01600118  RH  076%=      5-min Rain = 0
KHA2 160755Z 20003KT 16/12 A2997 RMK A01 T01600118  RH  076%=      5-min Rain = 0
KHA2 160756Z 22003KT 16/12 A2998 RMK A01 T01600117  RH  076%=      5-min Rain = 0
KHA2 160757Z 24002KT 16/12 A2998 RMK A01 T01600116  RH  075%=      5-min Rain = 0
KHA2 160758Z 24001KT 16/12 A2998 RMK A01 T01600116  RH  075%=      5-min Rain = 0
KHA2 160759Z 23000KT 16/12 A2997 RMK A01 T01600115  RH  075%=      5-min Rain = 0
KHA2 160800Z 08002KT 16/12 A2997 RMK A01 T01600115  RH  075%=      5-min Rain = 0
KHA2 160801Z 09004KT 16/12 A2996 RMK A01 T01600118  RH  076%=      5-min Rain = 0
KHA2 160802Z 09005KT 16/12 A2996 RMK A01 T01600122  RH  078%=      5-min Rain = 0
KHA2 160803Z 09006KT 16/13 A2996 RMK A01 T01600125  RH  080%=      5-min Rain = 0
KHA2 160804Z 09006KT 16/13 A2996 RMK A01 T01600127  RH  081%=      5-min Rain = 0
KHA2 160805Z 10006KT 16/13 A2997 RMK A01 T01610126  RH  080%=      5-min Rain = 0
KHA2 160806Z 11007KT 16/13 A2997 RMK A01 T01610125  RH  079%=      5-min Rain = 0
KHA2 160807Z 12007KT 16/12 A2997 RMK A01 T01610123  RH  078%=      5-min Rain = 0
KHA2 160808Z 13007KT 16/12 A2997 RMK A01 T01600122  RH  078%=      5-min Rain = 0
KHA2 160809Z 13007KT 16/12 A2996 RMK A01 T01590122  RH  079%=      5-min Rain = 0
KHA2 160810Z 13007KT 16/12 A2996 RMK A01 T01590122  RH  079%=      5-min Rain = 0
KHA2 160811Z 13008KT 16/12 A2996 RMK A01 T01590122  RH  079%=      5-min Rain = 0
KHA2 160812Z 12007KT 16/12 A2996 RMK A01 T01590122  RH  078%=      5-min Rain = 0
KHA2 160813Z 11006KT 16/12 A2996 RMK A01 T01600122  RH  078%=      5-min Rain = 0
KHA2 160814Z 10006KT 16/12 A2996 RMK A01 T01600123  RH  079%=      5-min Rain = 0
KHA2 160815Z 10006KT 16/12 A2996 RMK A01 T01600124  RH  079%=      5-min Rain = 0
KHA2 160816Z 09007KT 16/13 A2996 RMK A01 T01600125  RH  080%=      5-min Rain = 0
KHA2 160817Z 10009KT 16/13 A2996 RMK A01 T01610125  RH  079%=      5-min Rain = 0
KHA2 160818Z 10010KT 16/13 A2995 RMK A01 T01620125  RH  079%=      5-min Rain = 0
KHA2 160819Z 10010KT 16/13 A2995 RMK A01 T01630125  RH  078%=      5-min Rain = 0
KHA2 160820Z 10010KT 16/13 A2995 RMK A01 T01630125  RH  078%=      5-min Rain = 0
KHA2 160821Z 09009KT 16/13 A2995 RMK A01 T01640125  RH  078%=      5-min Rain = 0
KHA2 160822Z 08008KT 16/13 A2996 RMK A01 T01640126  RH  078%=      5-min Rain = 0
KHA2 160823Z 07006KT 16/13 A2996 RMK A01 T01640125  RH  078%=      5-min Rain = 0
KHA2 160824Z 07006KT 16/12 A2996 RMK A01 T01640124  RH  077%=      5-min Rain = 0
KHA2 160825Z 07004KT 16/12 A2997 RMK A01 T01640124  RH  077%=      5-min Rain = 0
KHA2 160826Z 06005KT 16/12 A2997 RMK A01 T01640122  RH  076%=      5-min Rain = 0
KHA2 160827Z 07007KT 17/12 A2997 RMK A01 T01650119  RH  074%=      5-min Rain = 0
KHA2 160828Z 06007KT 17/12 A2997 RMK A01 T01670118  RH  073%=      5-min Rain = 0
KHA2 160829Z 05007KT 17/12 A2997 RMK A01 T01690117  RH  072%=      5-min Rain = 0
KHA2 160830Z 01006KT 17/12 A2998 RMK A01 T01700118  RH  071%=      5-min Rain = 0
KHA2 160831Z 33006KT 17/12 A2998 RMK A01 T01700119  RH  072%=      5-min Rain = 0
KHA2 160832Z 32008KT 17/12 A2999 RMK A01 T01690117  RH  072%=      5-min Rain = 0
KHA2 160833Z 30010KT 17/12 A30 RMK A01 T01690118  RH  072%=      5-min Rain = 0
KHA2 160834Z 31008KT 17/12 A30 RMK A01 T01680120  RH  073%=      5-min Rain = 0
KHA2 160835Z 32007KT 17/12 A30 RMK A01 T01680119  RH  073%=      5-min Rain = 0
KHA2 160836Z 32008KT 17/12 A30 RMK A01 T01680118  RH  072%=      5-min Rain = 0
KHA2 160837Z 32007KT 17/12 A30 RMK A01 T01690118  RH  072%=      5-min Rain = 0
KHA2 160838Z 32005KT 17/12 A30 RMK A01 T01680119  RH  073%=      5-min Rain = 0
KHA2 160839Z 33004KT 17/12 A30 RMK A01 T01680119  RH  073%=      5-min Rain = 0
KHA2 160840Z 35003KT 17/12 A2999 RMK A01 T01680119  RH  073%=      5-min Rain = 0
KHA2 160841Z 36003KT 17/12 A2999 RMK A01 T01680120  RH  074%=      5-min Rain = 0
KHA2 160842Z 02002KT 17/12 A2999 RMK A01 T01670121  RH  074%=      5-min Rain = 0
KHA2 160843Z 04002KT 17/12 A2999 RMK A01 T01660122  RH  075%=      5-min Rain = 0
KHA2 160844Z 05001KT 17/12 A2999 RMK A01 T01660122  RH  075%=      5-min Rain = 0
KHA2 160845Z 33001KT 17/12 A2999 RMK A01 T01660121  RH  075%=      5-min Rain = 0
KHA2 160846Z 30004KT 17/12 A30 RMK A01 T01660120  RH  074%=      5-min Rain = 0
KHA2 160847Z 30005KT 17/12 A30 RMK A01 T01660118  RH  073%=      5-min Rain = 0
KHA2 160848Z 33004KT 17/12 A30 RMK A01 T01670117  RH  072%=      5-min Rain = 0
KHA2 160849Z 01004KT 17/12 A2999 RMK A01 T01670117  RH  072%=      5-min Rain = 0
KHA2 160850Z 04004KT 17/12 A2999 RMK A01 T01670119  RH  073%=      5-min Rain = 0
KHA2 160851Z 05005KT 17/12 A2998 RMK A01 T01680121  RH  074%=      5-min Rain = 0
KHA2 160852Z 05005KT 17/12 A2998 RMK A01 T01670121  RH  074%=      5-min Rain = 0
KHA2 160853Z 05005KT 17/12 A2998 RMK A01 T01660121  RH  075%=      5-min Rain = 0
KHA2 160854Z 04004KT 17/12 A2999 RMK A01 T01650121  RH  075%=      5-min Rain = 0
KHA2 160855Z 03003KT 17/12 A2999 RMK A01 T01650121  RH  075%=      5-min Rain = 0
KHA2 160856Z 05002KT 17/12 A2999 RMK A01 T01650123  RH  076%=      5-min Rain = 0
KHA2 160857Z 08003KT 17/12 A2999 RMK A01 T01650123  RH  076%=      5-min Rain = 0
KHA2 160858Z 08002KT 17/12 A2999 RMK A01 T01650123  RH  076%=      5-min Rain = 0
KHA2 160859Z 11002KT 17/12 A30 RMK A01 T01650124  RH  077%=      5-min Rain = 0
KHA2 160900Z 10001KT 16/13 A30 RMK A01 T01640125  RH  077%=      5-min Rain = 0
KHA2 160901Z 05001KT 16/12 A30 RMK A01 T01640124  RH  077%=      5-min Rain = 0
KHA2 160902Z 06003KT 16/12 A30 RMK A01 T01630124  RH  077%=      5-min Rain = 0
KHA2 160903Z 06004KT 16/12 A2999 RMK A01 T01640124  RH  077%=      5-min Rain = 0
KHA2 160904Z 06005KT 16/13 A2999 RMK A01 T01630125  RH  078%=      5-min Rain = 0
KHA2 160905Z 07005KT 16/13 A2999 RMK A01 T01630125  RH  078%=      5-min Rain = 0
KHA2 160906Z 06006KT 16/13 A2999 RMK A01 T01620125  RH  079%=      5-min Rain = 0
KHA2 160907Z 06006KT 16/13 A2999 RMK A01 T01630126  RH  079%=      5-min Rain = 0
KHA2 160908Z 04006KT 16/13 A2999 RMK A01 T01620125  RH  078%=      5-min Rain = 0
KHA2 160909Z 03006KT 16/13 A30 RMK A01 T01630125  RH  078%=      5-min Rain = 0
KHA2 160910Z 02007KT 16/12 A30 RMK A01 T01630123  RH  078%=      5-min Rain = 0
KHA2 160911Z 01006KT 16/12 A30 RMK A01 T01630122  RH  077%=      5-min Rain = 0
KHA2 160912Z 35006KT 16/12 A3001 RMK A01 T01630120  RH  076%=      5-min Rain = 0
KHA2 160913Z 33005KT 16/12 A3001 RMK A01 T01640119  RH  075%=      5-min Rain = 0
KHA2 160914Z 31005KT 17/12 A30 RMK A01 T01650119  RH  074%=      5-min Rain = 0
KHA2 160915Z 30005KT 17/12 A30 RMK A01 T01660119  RH  074%=      5-min Rain = 0
KHA2 160916Z 30004KT 17/12 A30 RMK A01 T01660120  RH  074%=      5-min Rain = 0
KHA2 160917Z 33002KT 17/12 A2999 RMK A01 T01660121  RH  074%=      5-min Rain = 0
KHA2 160918Z 03003KT 17/12 A2999 RMK A01 T01660122  RH  075%=      5-min Rain = 0
KHA2 160919Z 04004KT 17/12 A2999 RMK A01 T01660123  RH  076%=      5-min Rain = 0
KHA2 160920Z 04005KT 17/12 A2999 RMK A01 T01650123  RH  076%=      5-min Rain = 0
KHA2 160921Z 04005KT 17/12 A2998 RMK A01 T01650123  RH  076%=      5-min Rain = 0
KHA2 160922Z 04005KT 16/12 A2998 RMK A01 T01640123  RH  077%=      5-min Rain = 0
KHA2 160923Z 03005KT 16/12 A2998 RMK A01 T01640123  RH  076%=      5-min Rain = 0
KHA2 160924Z 35004KT 16/12 A2999 RMK A01 T01640122  RH  076%=      5-min Rain = 0
KHA2 160925Z 30006KT 16/12 A2999 RMK A01 T01640119  RH  074%=      5-min Rain = 0
KHA2 160926Z 28009KT 17/12 A30 RMK A01 T01650118  RH  074%=      5-min Rain = 0
KHA2 160927Z 27009KT 17/12 A2999 RMK A01 T01650120  RH  075%=      5-min Rain = 0
KHA2 160928Z 28007KT 17/12 A2999 RMK A01 T01650120  RH  075%=      5-min Rain = 0
KHA2 160929Z 28005KT 17/12 A2999 RMK A01 T01650120  RH  074%=      5-min Rain = 0
KHA2 160930Z 30005KT 17/12 A2998 RMK A01 T01650120  RH  075%=      5-min Rain = 0
KHA2 160931Z 30004KT 17/12 A2998 RMK A01 T01650121  RH  075%=      5-min Rain = 0
KHA2 160932Z 30005KT 17/12 A2998 RMK A01 T01650121  RH  075%=      5-min Rain = 0
KHA2 160933Z 30005KT 17/12 A2998 RMK A01 T01650121  RH  075%=      5-min Rain = 0
KHA2 160934Z 31003KT 17/12 A2998 RMK A01 T01650121  RH  075%=      5-min Rain = 0
KHA2 160935Z 31001KT 17/12 A2998 RMK A01 T01650121  RH  075%=      5-min Rain = 0
KHA2 160936Z 30000KT 17/12 A2998 RMK A01 T01650121  RH  075%=      5-min Rain = 0
KHA2 160937Z 00000KT 17/12 A2998 RMK A01 T01650121  RH  075%=      5-min Rain = 0
KHA2 160938Z 19000KT 17/12 A2998 RMK A01 T01650121  RH  075%=      5-min Rain = 0
KHA2 160939Z 17002KT 17/12 A2998 RMK A01 T01650121  RH  075%=      5-min Rain = 0
KHA2 160940Z 16003KT 17/12 A2998 RMK A01 T01650122  RH  076%=      5-min Rain = 0
KHA2 160941Z 16004KT 16/12 A2998 RMK A01 T01640123  RH  077%=      5-min Rain = 0
KHA2 160942Z 16003KT 16/12 A2997 RMK A01 T01630124  RH  077%=      5-min Rain = 0
KHA2 160943Z 16003KT 16/12 A2997 RMK A01 T01620124  RH  078%=      5-min Rain = 0
KHA2 160944Z 14002KT 16/13 A2997 RMK A01 T01620125  RH  079%=      5-min Rain = 0
KHA2 160945Z 11002KT 16/13 A2997 RMK A01 T01610126  RH  079%=      5-min Rain = 0
KHA2 160946Z 09003KT 16/13 A2997 RMK A01 T01600126  RH  080%=      5-min Rain = 0
KHA2 160947Z 08004KT 16/13 A2996 RMK A01 T01600128  RH  082%=      5-min Rain = 0
KHA2 160948Z 07005KT 16/13 A2996 RMK A01 T01590128  RH  082%=      5-min Rain = 0
KHA2 160949Z 06005KT 16/13 A2996 RMK A01 T01590129  RH  082%=      5-min Rain = 0
KHA2 160950Z 06004KT 16/13 A2996 RMK A01 T01590128  RH  082%=      5-min Rain = 0
KHA2 160951Z 06003KT 16/13 A2996 RMK A01 T01580127  RH  081%=      5-min Rain = 0
KHA2 160952Z 07002KT 16/13 A2996 RMK A01 T01580127  RH  082%=      5-min Rain = 0
KHA2 160953Z 09002KT 16/13 A2996 RMK A01 T01580127  RH  082%=      5-min Rain = 0
KHA2 160954Z 11002KT 16/13 A2996 RMK A01 T01580128  RH  082%=      5-min Rain = 0
KHA2 160955Z 13002KT 16/13 A2996 RMK A01 T01580129  RH  083%=      5-min Rain = 0
KHA2 160956Z 14004KT 16/13 A2996 RMK A01 T01580129  RH  083%=      5-min Rain = 0
KHA2 160957Z 16006KT 16/13 A2996 RMK A01 T01570130  RH  084%=      5-min Rain = 0
KHA2 160958Z 16007KT 16/13 A2996 RMK A01 T01560130  RH  085%=      5-min Rain = 0
KHA2 160959Z 15007KT 16/13 A2996 RMK A01 T01550130  RH  085%=      5-min Rain = 0
KHA2 161000Z 15007KT 15/13 A2996 RMK A01 T01540130  RH  086%=      5-min Rain = 0
KHA2 161001Z 15007KT 15/13 A2996 RMK A01 T01540131  RH  086%=      5-min Rain = 0
KHA2 161002Z 15006KT 15/13 A2996 RMK A01 T01530130  RH  086%=      5-min Rain = 0
KHA2 161003Z 15005KT 15/13 A2996 RMK A01 T01530130  RH  086%=      5-min Rain = 0
KHA2 161004Z 15004KT 15/13 A2996 RMK A01 T01530130  RH  086%=      5-min Rain = 0
KHA2 161005Z 15004KT 15/13 A2996 RMK A01 T01530130  RH  086%=      5-min Rain = 0
KHA2 161006Z 15003KT 15/13 A2996 RMK A01 T01540130  RH  086%=      5-min Rain = 0
KHA2 161007Z 14004KT 15/13 A2995 RMK A01 T01530129  RH  086%=      5-min Rain = 0
KHA2 161008Z 14005KT 15/13 A2995 RMK A01 T01540130  RH  086%=      5-min Rain = 0
KHA2 161009Z 13006KT 15/13 A2995 RMK A01 T01530129  RH  086%=      5-min Rain = 0
KHA2 161010Z 13006KT 15/13 A2995 RMK A01 T01540129  RH  086%=      5-min Rain = 0
KHA2 161011Z 13007KT 15/13 A2995 RMK A01 T01530129  RH  085%=      5-min Rain = 0
KHA2 161012Z 13007KT 15/13 A2995 RMK A01 T01540129  RH  085%=      5-min Rain = 0
KHA2 161013Z 13007KT 15/13 A2994 RMK A01 T01530129  RH  085%=      5-min Rain = 0
KHA2 161014Z 14007KT 15/13 A2994 RMK A01 T01530128  RH  085%=      5-min Rain = 0
KHA2 161015Z 13006KT 15/13 A2994 RMK A01 T01530128  RH  085%=      5-min Rain = 0
KHA2 161016Z 12004KT 15/13 A2995 RMK A01 T01530129  RH  085%=      5-min Rain = 0
KHA2 161017Z 09003KT 15/13 A2995 RMK A01 T01530128  RH  085%=      5-min Rain = 0
KHA2 161018Z 08003KT 15/13 A2995 RMK A01 T01530128  RH  085%=      5-min Rain = 0
KHA2 161019Z 08004KT 15/13 A2995 RMK A01 T01530128  RH  085%=      5-min Rain = 0
KHA2 161020Z 09005KT 15/13 A2995 RMK A01 T01540129  RH  085%=      5-min Rain = 0
KHA2 161021Z 10005KT 15/13 A2995 RMK A01 T01540130  RH  085%=      5-min Rain = 0
KHA2 161022Z 09005KT 16/13 A2995 RMK A01 T01550130  RH  085%=      5-min Rain = 0
KHA2 161023Z 09005KT 16/13 A2995 RMK A01 T01560129  RH  084%=      5-min Rain = 0
KHA2 161024Z 09005KT 16/13 A2995 RMK A01 T01570129  RH  084%=      5-min Rain = 0
KHA2 161025Z 09005KT 16/13 A2995 RMK A01 T01580129  RH  083%=      5-min Rain = 0
KHA2 161026Z 09005KT 16/13 A2995 RMK A01 T01580129  RH  083%=      5-min Rain = 0
KHA2 161027Z 10004KT 16/13 A2995 RMK A01 T01590130  RH  083%=      5-min Rain = 0
KHA2 161028Z 11004KT 16/13 A2996 RMK A01 T01580129  RH  083%=      5-min Rain = 0
KHA2 161029Z 11004KT 16/13 A2996 RMK A01 T01590129  RH  082%=      5-min Rain = 0
KHA2 161030Z 11004KT 16/13 A2996 RMK A01 T01580129  RH  083%=      5-min Rain = 0
KHA2 161031Z 11003KT 16/13 A2996 RMK A01 T01580129  RH  083%=      5-min Rain = 0
KHA2 161032Z 09003KT 16/13 A2996 RMK A01 T01570129  RH  084%=      5-min Rain = 0
KHA2 161033Z 07003KT 16/13 A2996 RMK A01 T01570130  RH  084%=      5-min Rain = 0
KHA2 161034Z 06003KT 16/13 A2997 RMK A01 T01570131  RH  085%=      5-min Rain = 0
KHA2 161035Z 06003KT 16/13 A2997 RMK A01 T01570132  RH  085%=      5-min Rain = 0
KHA2 161036Z 05003KT 16/13 A2997 RMK A01 T01570133  RH  085%=      5-min Rain = 0
KHA2 161037Z 05003KT 16/13 A2997 RMK A01 T01570133  RH  085%=      5-min Rain = 0
KHA2 161038Z 05003KT 16/13 A2997 RMK A01 T01570132  RH  085%=      5-min Rain = 0
KHA2 161039Z 05003KT 16/13 A2998 RMK A01 T01560132  RH  085%=      5-min Rain = 0
KHA2 161040Z 07002KT 16/13 A2998 RMK A01 T01560133  RH  086%=      5-min Rain = 0
KHA2 161041Z 08001KT 16/13 A2998 RMK A01 T01560133  RH  086%=      5-min Rain = 0
KHA2 161042Z 08000KT 16/13 A2998 RMK A01 T01560132  RH  086%=      5-min Rain = 0
KHA2 161043Z 00000KT 16/13 A2998 RMK A01 T01560132  RH  086%=      5-min Rain = 0
KHA2 161044Z 00000KT 16/13 A2998 RMK A01 T01560132  RH  086%=      5-min Rain = 0
KHA2 161045Z 08000KT 16/13 A2998 RMK A01 T01560131  RH  085%=      5-min Rain = 0
KHA2 161046Z 08001KT 16/13 A2998 RMK A01 T01560132  RH  085%=      5-min Rain = 0
KHA2 161047Z 05003KT 16/13 A2998 RMK A01 T01560132  RH  086%=      5-min Rain = 0
KHA2 161048Z 04004KT 16/13 A2998 RMK A01 T01560134  RH  087%=      5-min Rain = 0
KHA2 161049Z 02005KT 16/14 A2999 RMK A01 T01560135  RH  087%=      5-min Rain = 0
KHA2 161050Z 35005KT 16/13 A2999 RMK A01 T01550132  RH  086%=      5-min Rain = 0
KHA2 161051Z 35007KT 16/13 A2999 RMK A01 T01550129  RH  084%=      5-min Rain = 0
KHA2 161052Z 35007KT 16/13 A30 RMK A01 T01560128  RH  083%=      5-min Rain = 0
KHA2 161053Z 33009KT 16/13 A30 RMK A01 T01560128  RH  083%=      5-min Rain = 0
KHA2 161054Z 32010KT 16/13 A3001 RMK A01 T01570128  RH  083%=      5-min Rain = 0
KHA2 161055Z 32011KT 16/13 A3001 RMK A01 T01580129  RH  083%=      5-min Rain = 0
KHA2 161056Z 32010KT 16/13 A3001 RMK A01 T01590128  RH  082%=      5-min Rain = 0
KHA2 161057Z 32008KT 16/13 A3001 RMK A01 T01590129  RH  082%=      5-min Rain = 0
KHA2 161058Z 32009KT 16/13 A3001 RMK A01 T01590131  RH  084%=      5-min Rain = 0
KHA2 161059Z 33011KT 16/13 A3001 RMK A01 T01590133  RH  084%=      5-min Rain = 0
KHA2 161100Z 34012KT 16/13 A3001 RMK A01 T01590133  RH  085%=      5-min Rain = 0
KHA2 161101Z 35012KT 16/13 A3001 RMK A01 T01590134  RH  085%=      5-min Rain = 0
KHA2 161102Z 01012KT 16/13 A30 RMK A01 T01590134  RH  085%=      5-min Rain = 0
KHA2 161103Z 02012KT 16/14 A30 RMK A01 T01580135  RH  087%=      5-min Rain = 0
KHA2 161104Z 02010KT 16/14 A30 RMK A01 T01570136  RH  087%=      5-min Rain = 0
KHA2 161105Z 36007KT 16/14 A30 RMK A01 T01570136  RH  088%=      5-min Rain = 0
KHA2 161106Z 30006KT 16/14 A3001 RMK A01 T01560135  RH  087%=      5-min Rain = 0
KHA2 161107Z 25008KT 16/14 A3001 RMK A01 T01560136  RH  088%=      5-min Rain = 0
KHA2 161108Z 26009KT 16/14 A3001 RMK A01 T01560137  RH  088%=      5-min Rain = 0
KHA2 161109Z 25009KT 16/14 A3001 RMK A01 T01560137  RH  088%=      5-min Rain = 0
KHA2 161110Z 25011KT 16/14 A3001 RMK A01 T01560136  RH  088%=      5-min Rain = 0
KHA2 161111Z 26010KT 16/13 A3001 RMK A01 T01560133  RH  086%=      5-min Rain = 0
KHA2 161112Z 27007KT 16/13 A3001 RMK A01 T01580130  RH  084%=      5-min Rain = 0
KHA2 161113Z 27007KT 16/13 A3001 RMK A01 T01590132  RH  084%=      5-min Rain = 0
KHA2 161114Z 26006KT 16/13 A3001 RMK A01 T01590132  RH  084%=      5-min Rain = 0
KHA2 161115Z 25006KT 16/13 A3001 RMK A01 T01590134  RH  085%=      5-min Rain = 0
KHA2 161116Z 26006KT 16/14 A3001 RMK A01 T01580135  RH  086%=      5-min Rain = 0
KHA2 161117Z 26006KT 16/14 A3001 RMK A01 T01570135  RH  087%=      5-min Rain = 0
KHA2 161118Z 28005KT 16/14 A3001 RMK A01 T01560135  RH  088%=      5-min Rain = 0
KHA2 161119Z 28004KT 16/14 A3001 RMK A01 T01550135  RH  087%=      5-min Rain = 0
KHA2 161120Z 27003KT 16/14 A3001 RMK A01 T01550135  RH  088%=      5-min Rain = 0
KHA2 161121Z 25003KT 16/14 A3001 RMK A01 T01550135  RH  088%=      5-min Rain = 0
KHA2 161122Z 24004KT 16/14 A3001 RMK A01 T01550135  RH  088%=      5-min Rain = 0
KHA2 161123Z 24005KT 16/14 A3001 RMK A01 T01550135  RH  088%=      5-min Rain = 0
KHA2 161124Z 24006KT 15/14 A3001 RMK A01 T01540135  RH  088%=      5-min Rain = 0
KHA2 161125Z 24007KT 15/14 A3001 RMK A01 T01540135  RH  088%=      5-min Rain = 0
KHA2 161126Z 26006KT 15/14 A3001 RMK A01 T01540135  RH  089%=      5-min Rain = 0
KHA2 161127Z 25005KT 15/14 A3001 RMK A01 T01530136  RH  089%=      5-min Rain = 0
KHA2 161128Z 26005KT 15/14 A3001 RMK A01 T01530136  RH  089%=      5-min Rain = 0
KHA2 161129Z 26005KT 15/14 A3001 RMK A01 T01530136  RH  089%=      5-min Rain = 0
KHA2 161130Z 27004KT 15/14 A3001 RMK A01 T01530135  RH  089%=      5-min Rain = 0
KHA2 161131Z 27003KT 15/14 A3001 RMK A01 T01530135  RH  089%=      5-min Rain = 0
KHA2 161132Z 28003KT 15/13 A3001 RMK A01 T01530134  RH  089%=      5-min Rain = 0
KHA2 161133Z 27002KT 15/13 A3001 RMK A01 T01530134  RH  089%=      5-min Rain = 0
KHA2 161134Z 27003KT 15/14 A3001 RMK A01 T01530135  RH  089%=      5-min Rain = 0
KHA2 161135Z 27003KT 15/14 A3001 RMK A01 T01530135  RH  089%=      5-min Rain = 0
KHA2 161136Z 26004KT 15/14 A3001 RMK A01 T01530136  RH  089%=      5-min Rain = 0
KHA2 161137Z 27005KT 15/14 A3001 RMK A01 T01530136  RH  090%=      5-min Rain = 0
KHA2 161138Z 27005KT 15/14 A3001 RMK A01 T01530135  RH  089%=      5-min Rain = 0
KHA2 161139Z 27004KT 15/14 A3001 RMK A01 T01530135  RH  089%=      5-min Rain = 0
KHA2 161140Z 27004KT 15/14 A3001 RMK A01 T01530135  RH  089%=      5-min Rain = 0
KHA2 161141Z 27004KT 15/14 A3001 RMK A01 T01530135  RH  089%=      5-min Rain = 0
KHA2 161142Z 27004KT 15/14 A3001 RMK A01 T01530135  RH  089%=      5-min Rain = 0
KHA2 161143Z 28003KT 15/14 A3001 RMK A01 T01530135  RH  089%=      5-min Rain = 0
KHA2 161144Z 27003KT 15/14 A3001 RMK A01 T01530135  RH  089%=      5-min Rain = 0
KHA2 161145Z 28003KT 15/14 A3001 RMK A01 T01530135  RH  089%=      5-min Rain = 0
KHA2 161146Z 28003KT 15/14 A3001 RMK A01 T01530135  RH  089%=      5-min Rain = 0
KHA2 161147Z 29003KT 15/14 A30 RMK A01 T01540135  RH  089%=      5-min Rain = 0
KHA2 161148Z 29002KT 15/14 A30 RMK A01 T01530135  RH  089%=      5-min Rain = 0
KHA2 161149Z 30002KT 15/14 A30 RMK A01 T01540135  RH  089%=      5-min Rain = 0
KHA2 161150Z 29002KT 15/14 A30 RMK A01 T01530135  RH  089%=      5-min Rain = 0
KHA2 161151Z 30003KT 15/14 A30 RMK A01 T01540135  RH  088%=      5-min Rain = 0
KHA2 161152Z 30003KT 15/14 A30 RMK A01 T01540135  RH  088%=      5-min Rain = 0
KHA2 161153Z 30004KT 15/14 A30 RMK A01 T01540135  RH  089%=      5-min Rain = 0
KHA2 161154Z 30004KT 15/14 A30 RMK A01 T01540135  RH  088%=      5-min Rain = 0
KHA2 161155Z 29004KT 15/14 A30 RMK A01 T01540136  RH  089%=      5-min Rain = 0
KHA2 161156Z 29006KT 15/14 A30 RMK A01 T01540136  RH  089%=      5-min Rain = 0
KHA2 161157Z 29007KT 16/14 A3001 RMK A01 T01550136  RH  089%=      5-min Rain = 0
KHA2 161158Z 28008KT 16/14 A3001 RMK A01 T01550135  RH  088%=      5-min Rain = 0
KHA2 161159Z 28007KT 16/14 A3001 RMK A01 T01550136  RH  088%=      5-min Rain = 0
KHA2 161200Z 27007KT 16/14 A3001 RMK A01 T01560137  RH  089%=      5-min Rain = 0
KHA2 161201Z 27007KT 16/14 A3001 RMK A01 T01560137  RH  089%=      5-min Rain = 0
KHA2 161202Z 28006KT 16/14 A3001 RMK A01 T01560138  RH  089%=      5-min Rain = 0
KHA2 161203Z 28006KT 16/14 A30 RMK A01 T01550138  RH  089%=      5-min Rain = 0
KHA2 161204Z 28007KT 16/14 A30 RMK A01 T01550137  RH  089%=      5-min Rain = 0
KHA2 161205Z 28006KT 16/14 A30 RMK A01 T01550136  RH  088%=      5-min Rain = 0
KHA2 161206Z 27005KT 16/14 A30 RMK A01 T01560135  RH  087%=      5-min Rain = 0
KHA2 161207Z 28005KT 16/13 A30 RMK A01 T01570134  RH  086%=      5-min Rain = 0
KHA2 161208Z 28005KT 16/14 A30 RMK A01 T01580135  RH  086%=      5-min Rain = 0
KHA2 161209Z 28006KT 16/13 A30 RMK A01 T01570134  RH  086%=      5-min Rain = 0
KHA2 161210Z 27005KT 16/13 A30 RMK A01 T01580133  RH  085%=      5-min Rain = 0
KHA2 161211Z 27005KT 16/13 A30 RMK A01 T01580134  RH  086%=      5-min Rain = 0
KHA2 161212Z 27006KT 16/14 A30 RMK A01 T01580135  RH  086%=      5-min Rain = 0
KHA2 161213Z 27005KT 16/14 A30 RMK A01 T01580135  RH  086%=      5-min Rain = 0
KHA2 161214Z 27007KT 16/14 A30 RMK A01 T01580136  RH  087%=      5-min Rain = 0
KHA2 161215Z 27008KT 16/14 A30 RMK A01 T01580136  RH  087%=      5-min Rain = 0
KHA2 161216Z 27008KT 16/14 A30 RMK A01 T01580136  RH  087%=      5-min Rain = 0
KHA2 161217Z 27008KT 16/14 A30 RMK A01 T01580137  RH  087%=      5-min Rain = 0
KHA2 161218Z 27007KT 16/14 A30 RMK A01 T01580136  RH  087%=      5-min Rain = 0
KHA2 161219Z 28008KT 16/14 A30 RMK A01 T01580136  RH  087%=      5-min Rain = 0
KHA2 161220Z 28008KT 16/14 A30 RMK A01 T01580136  RH  086%=      5-min Rain = 0
KHA2 161221Z 28007KT 16/14 A30 RMK A01 T01590136  RH  086%=      5-min Rain = 0
KHA2 161222Z 28007KT 16/14 A30 RMK A01 T01580136  RH  087%=      5-min Rain = 0
KHA2 161223Z 28006KT 16/14 A30 RMK A01 T01590136  RH  086%=      5-min Rain = 0
KHA2 161224Z 27005KT 16/14 A30 RMK A01 T01590136  RH  086%=      5-min Rain = 0
KHA2 161225Z 27005KT 16/14 A30 RMK A01 T01600136  RH  085%=      5-min Rain = 0
KHA2 161226Z 26006KT 16/14 A30 RMK A01 T01600135  RH  085%=      5-min Rain = 0
KHA2 161227Z 25006KT 16/14 A30 RMK A01 T01600138  RH  087%=      5-min Rain = 0
KHA2 161228Z 26007KT 16/14 A30 RMK A01 T01580139  RH  088%=      5-min Rain = 0
KHA2 161229Z 26006KT 16/14 A30 RMK A01 T01570138  RH  089%=      5-min Rain = 0
KHA2 161230Z 27006KT 16/14 A30 RMK A01 T01570138  RH  089%=      5-min Rain = 0
KHA2 161231Z 28006KT 16/14 A30 RMK A01 T01570137  RH  088%=      5-min Rain = 0
KHA2 161232Z 29007KT 16/14 A30 RMK A01 T01570137  RH  088%=      5-min Rain = 0
KHA2 161233Z 29007KT 16/14 A30 RMK A01 T01570136  RH  087%=      5-min Rain = 0
KHA2 161234Z 29007KT 16/14 A30 RMK A01 T01590136  RH  086%=      5-min Rain = 0
KHA2 161235Z 29006KT 16/14 A30 RMK A01 T01590135  RH  086%=      5-min Rain = 0
KHA2 161236Z 29005KT 16/13 A30 RMK A01 T01600134  RH  085%=      5-min Rain = 0
KHA2 161237Z 30006KT 16/13 A30 RMK A01 T01610133  RH  083%=      5-min Rain = 0
KHA2 161238Z 30006KT 16/13 A30 RMK A01 T01620132  RH  082%=      5-min Rain = 0
KHA2 161239Z 30006KT 16/13 A30 RMK A01 T01630132  RH  082%=      5-min Rain = 0
KHA2 161240Z 31006KT 16/13 A30 RMK A01 T01640132  RH  081%=      5-min Rain = 0
KHA2 161241Z 31006KT 16/13 A30 RMK A01 T01640132  RH  082%=      5-min Rain = 0
KHA2 161242Z 30005KT 16/13 A30 RMK A01 T01640134  RH  082%=      5-min Rain = 0
KHA2 161243Z 30005KT 16/14 A30 RMK A01 T01640135  RH  083%=      5-min Rain = 0
KHA2 161244Z 30005KT 16/14 A30 RMK A01 T01640135  RH  083%=      5-min Rain = 0
KHA2 161245Z 30005KT 16/14 A30 RMK A01 T01630135  RH  083%=      5-min Rain = 0
KHA2 161246Z 30005KT 16/14 A30 RMK A01 T01630136  RH  084%=      5-min Rain = 0
KHA2 161247Z 30005KT 16/14 A30 RMK A01 T01630136  RH  084%=      5-min Rain = 0
KHA2 161248Z 30005KT 16/14 A30 RMK A01 T01630137  RH  085%=      5-min Rain = 0
KHA2 161249Z 30004KT 16/14 A30 RMK A01 T01620137  RH  085%=      5-min Rain = 0
KHA2 161250Z 30005KT 16/14 A30 RMK A01 T01620136  RH  085%=      5-min Rain = 0
KHA2 161251Z 30006KT 16/14 A30 RMK A01 T01620136  RH  084%=      5-min Rain = 0
KHA2 161252Z 30006KT 16/14 A30 RMK A01 T01620135  RH  084%=      5-min Rain = 0
KHA2 161253Z 30006KT 16/14 A3001 RMK A01 T01630136  RH  084%=      5-min Rain = 0
KHA2 161254Z 31006KT 16/14 A30 RMK A01 T01630137  RH  084%=      5-min Rain = 0
KHA2 161255Z 31005KT 16/14 A30 RMK A01 T01630136  RH  084%=      5-min Rain = 0
KHA2 161256Z 32006KT 16/14 A30 RMK A01 T01630136  RH  084%=      5-min Rain = 0
KHA2 161257Z 32005KT 16/14 A30 RMK A01 T01630136  RH  084%=      5-min Rain = 0
KHA2 161258Z 32006KT 16/14 A30 RMK A01 T01640136  RH  084%=      5-min Rain = 0
KHA2 161259Z 32006KT 16/14 A30 RMK A01 T01630136  RH  084%=      5-min Rain = 0
KHA2 161300Z 33006KT 16/14 A30 RMK A01 T01630136  RH  084%=      5-min Rain = 0
KHA2 161301Z 32007KT 16/14 A30 RMK A01 T01640136  RH  084%=      5-min Rain = 0
KHA2 161302Z 33006KT 16/14 A30 RMK A01 T01640136  RH  083%=      5-min Rain = 0
KHA2 161303Z 33006KT 17/14 A30 RMK A01 T01650136  RH  083%=      5-min Rain = 0
KHA2 161304Z 33006KT 17/14 A30 RMK A01 T01650136  RH  083%=      5-min Rain = 0
KHA2 161305Z 33007KT 17/14 A30 RMK A01 T01650136  RH  083%=      5-min Rain = 0
KHA2 161306Z 33007KT 17/14 A30 RMK A01 T01650135  RH  083%=      5-min Rain = 0
KHA2 161307Z 33007KT 17/14 A30 RMK A01 T01660136  RH  082%=      5-min Rain = 0
KHA2 161308Z 33006KT 17/14 A30 RMK A01 T01660136  RH  082%=      5-min Rain = 0
KHA2 161309Z 33006KT 17/14 A30 RMK A01 T01660136  RH  082%=      5-min Rain = 0
KHA2 161310Z 33007KT 17/14 A3001 RMK A01 T01660135  RH  082%=      5-min Rain = 0
KHA2 161311Z 33006KT 17/14 A3001 RMK A01 T01660135  RH  082%=      5-min Rain = 0
KHA2 161312Z 33006KT 17/14 A3001 RMK A01 T01660135  RH  082%=      5-min Rain = 0
KHA2 161313Z 33006KT 17/14 A3001 RMK A01 T01670136  RH  082%=      5-min Rain = 0
KHA2 161314Z 33006KT 17/14 A3001 RMK A01 T01670135  RH  082%=      5-min Rain = 0
KHA2 161315Z 33006KT 17/14 A3001 RMK A01 T01670136  RH  082%=      5-min Rain = 0
KHA2 161316Z 33007KT 17/14 A3001 RMK A01 T01670136  RH  082%=      5-min Rain = 0
KHA2 161317Z 33007KT 17/14 A3001 RMK A01 T01670135  RH  081%=      5-min Rain = 0
KHA2 161318Z 33007KT 17/14 A3001 RMK A01 T01670135  RH  081%=      5-min Rain = 0
KHA2 161319Z 33007KT 17/14 A3001 RMK A01 T01670135  RH  081%=      5-min Rain = 0
KHA2 161320Z 33007KT 17/14 A3001 RMK A01 T01680136  RH  081%=      5-min Rain = 0
KHA2 161321Z 33007KT 17/14 A3001 RMK A01 T01680136  RH  081%=      5-min Rain = 0
KHA2 161322Z 33008KT 17/14 A3001 RMK A01 T01680136  RH  081%=      5-min Rain = 0
KHA2 161323Z 33008KT 17/14 A3001 RMK A01 T01680136  RH  081%=      5-min Rain = 0
KHA2 161324Z 33008KT 17/14 A3001 RMK A01 T01680135  RH  081%=      5-min Rain = 0
KHA2 161325Z 33007KT 17/14 A3001 RMK A01 T01690136  RH  081%=      5-min Rain = 0
KHA2 161326Z 34007KT 17/14 A3001 RMK A01 T01690136  RH  081%=      5-min Rain = 0
KHA2 161327Z 34007KT 17/14 A3001 RMK A01 T01690136  RH  081%=      5-min Rain = 0
KHA2 161328Z 34007KT 17/14 A3001 RMK A01 T01700136  RH  080%=      5-min Rain = 0
KHA2 161329Z 34007KT 17/14 A3001 RMK A01 T01700135  RH  080%=      5-min Rain = 0
KHA2 161330Z 34007KT 17/14 A3001 RMK A01 T01700136  RH  080%=      5-min Rain = 0
KHA2 161331Z 34007KT 17/14 A3001 RMK A01 T01700136  RH  080%=      5-min Rain = 0
KHA2 161332Z 34007KT 17/14 A3001 RMK A01 T01710136  RH  080%=      5-min Rain = 0
KHA2 161333Z 34007KT 17/14 A3001 RMK A01 T01710136  RH  080%=      5-min Rain = 0
KHA2 161334Z 34006KT 17/14 A3001 RMK A01 T01710136  RH  080%=      5-min Rain = 0
KHA2 161335Z 34006KT 17/14 A3001 RMK A01 T01710136  RH  080%=      5-min Rain = 0
KHA2 161336Z 34006KT 17/14 A3001 RMK A01 T01710136  RH  080%=      5-min Rain = 0
KHA2 161337Z 34006KT 17/14 A3001 RMK A01 T01710135  RH  079%=      5-min Rain = 0
KHA2 161338Z 34006KT 17/14 A3001 RMK A01 T01710135  RH  079%=      5-min Rain = 0
KHA2 161339Z 34006KT 17/14 A3001 RMK A01 T01720135  RH  079%=      5-min Rain = 0
KHA2 161340Z 33006KT 17/14 A3001 RMK A01 T01720135  RH  079%=      5-min Rain = 0
KHA2 161341Z 33005KT 17/14 A3002 RMK A01 T01720135  RH  078%=      5-min Rain = 0
KHA2 161342Z 32006KT 17/14 A3002 RMK A01 T01730135  RH  078%=      5-min Rain = 0
KHA2 161343Z 33005KT 17/13 A3002 RMK A01 T01730134  RH  078%=      5-min Rain = 0
KHA2 161344Z 33005KT 17/14 A3002 RMK A01 T01730136  RH  079%=      5-min Rain = 0
KHA2 161345Z 32005KT 17/13 A3002 RMK A01 T01730134  RH  078%=      5-min Rain = 0
KHA2 161346Z 32005KT 17/13 A3002 RMK A01 T01730134  RH  078%=      5-min Rain = 0
KHA2 161347Z 31006KT 17/13 A3002 RMK A01 T01740134  RH  077%=      5-min Rain = 0
KHA2 161348Z 31006KT 17/13 A3002 RMK A01 T01730133  RH  077%=      5-min Rain = 0
KHA2 161349Z 30006KT 17/13 A3002 RMK A01 T01740134  RH  077%=      5-min Rain = 0
KHA2 161350Z 31006KT 17/13 A3002 RMK A01 T01740134  RH  077%=      5-min Rain = 0
KHA2 161351Z 30005KT 17/13 A3002 RMK A01 T01740134  RH  078%=      5-min Rain = 0
KHA2 161352Z 29005KT 17/14 A3002 RMK A01 T01740135  RH  078%=      5-min Rain = 0
KHA2 161353Z 29005KT 17/14 A3002 RMK A01 T01740135  RH  078%=      5-min Rain = 0
KHA2 161354Z 30005KT 17/14 A3002 RMK A01 T01740135  RH  078%=      5-min Rain = 0
KHA2 161355Z 29005KT 17/13 A3002 RMK A01 T01740134  RH  077%=      5-min Rain = 0
KHA2 161356Z 29005KT 17/13 A3002 RMK A01 T01730134  RH  077%=      5-min Rain = 0
KHA2 161357Z 28005KT 17/13 A3002 RMK A01 T01730134  RH  077%=      5-min Rain = 0
KHA2 161358Z 29005KT 17/13 A3002 RMK A01 T01730134  RH  077%=      5-min Rain = 0
KHA2 161359Z 28005KT 17/13 A3002 RMK A01 T01730134  RH  078%=      5-min Rain = 0
KHA2 161400Z 28004KT 17/13 A3002 RMK A01 T01730134  RH  077%=      5-min Rain = 0
KHA2 161401Z 29004KT 17/13 A3002 RMK A01 T01740134  RH  077%=      5-min Rain = 0
KHA2 161402Z 29004KT 17/13 A3002 RMK A01 T01730134  RH  077%=      5-min Rain = 0
KHA2 161403Z 29004KT 17/13 A3002 RMK A01 T01740134  RH  078%=      5-min Rain = 0
KHA2 161404Z 30005KT 17/13 A3002 RMK A01 T01740134  RH  078%=      5-min Rain = 0
KHA2 161405Z 30005KT 17/14 A3002 RMK A01 T01730135  RH  078%=      5-min Rain = 0
KHA2 161406Z 30004KT 17/14 A3002 RMK A01 T01730135  RH  078%=      5-min Rain = 0
KHA2 161407Z 30004KT 17/14 A3002 RMK A01 T01740135  RH  078%=      5-min Rain = 0
KHA2 161408Z 31004KT 17/14 A3002 RMK A01 T01740136  RH  078%=      5-min Rain = 0
KHA2 161409Z 31004KT 17/14 A3002 RMK A01 T01730136  RH  079%=      5-min Rain = 0
KHA2 161410Z 31003KT 17/14 A3003 RMK A01 T01740136  RH  079%=      5-min Rain = 0
KHA2 161411Z 31004KT 17/14 A3003 RMK A01 T01730136  RH  079%=      5-min Rain = 0
KHA2 161412Z 31004KT 17/14 A3003 RMK A01 T01740137  RH  079%=      5-min Rain = 0
KHA2 161413Z 31004KT 17/14 A3003 RMK A01 T01730137  RH  079%=      5-min Rain = 0
KHA2 161414Z 32004KT 17/14 A3003 RMK A01 T01740137  RH  079%=      5-min Rain = 0
KHA2 161415Z 31004KT 17/14 A3003 RMK A01 T01740137  RH  079%=      5-min Rain = 0
KHA2 161416Z 31004KT 17/14 A3003 RMK A01 T01740136  RH  078%=      5-min Rain = 0
KHA2 161417Z 31004KT 18/14 A3003 RMK A01 T01750137  RH  078%=      5-min Rain = 0
KHA2 161418Z 31003KT 18/14 A3003 RMK A01 T01750137  RH  079%=      5-min Rain = 0
KHA2 161419Z 32003KT 18/14 A3003 RMK A01 T01750138  RH  079%=      5-min Rain = 0
KHA2 161420Z 33002KT 18/14 A3003 RMK A01 T01750138  RH  079%=      5-min Rain = 0
KHA2 161421Z 33001KT 18/14 A3003 RMK A01 T01750137  RH  078%=      5-min Rain = 0
KHA2 161422Z 32002KT 18/14 A3003 RMK A01 T01760138  RH  079%=      5-min Rain = 0
KHA2 161423Z 32002KT 18/14 A3003 RMK A01 T01760138  RH  078%=      5-min Rain = 0
KHA2 161424Z 33001KT 18/14 A3003 RMK A01 T01760138  RH  079%=      5-min Rain = 0
KHA2 161425Z 32002KT 18/14 A3003 RMK A01 T01760138  RH  078%=      5-min Rain = 0
KHA2 161426Z 31002KT 18/14 A3003 RMK A01 T01760138  RH  078%=      5-min Rain = 0
KHA2 161427Z 32002KT 18/14 A3003 RMK A01 T01760137  RH  078%=      5-min Rain = 0
KHA2 161428Z 33001KT 18/14 A3003 RMK A01 T01760136  RH  078%=      5-min Rain = 0
KHA2 161429Z 33001KT 18/14 A3003 RMK A01 T01760137  RH  078%=      5-min Rain = 0
KHA2 161430Z 33001KT 18/14 A3004 RMK A01 T01760137  RH  078%=      5-min Rain = 0
KHA2 161431Z 34002KT 18/14 A3004 RMK A01 T01760138  RH  078%=      5-min Rain = 0
KHA2 161432Z 34002KT 18/14 A3004 RMK A01 T01770138  RH  078%=      5-min Rain = 0
KHA2 161433Z 34002KT 18/14 A3004 RMK A01 T01770138  RH  078%=      5-min Rain = 0
KHA2 161434Z 35002KT 18/14 A3004 RMK A01 T01770138  RH  078%=      5-min Rain = 0
KHA2 161435Z 36002KT 18/14 A3004 RMK A01 T01770139  RH  078%=      5-min Rain = 0
KHA2 161436Z 36002KT 18/14 A3004 RMK A01 T01780140  RH  078%=      5-min Rain = 0
KHA2 161437Z 35002KT 18/14 A3004 RMK A01 T01780139  RH  078%=      5-min Rain = 0
KHA2 161438Z 35002KT 18/14 A3004 RMK A01 T01780139  RH  078%=      5-min Rain = 0
KHA2 161439Z 01002KT 18/14 A3004 RMK A01 T01770139  RH  078%=      5-min Rain = 0
KHA2 161440Z 36002KT 18/14 A3004 RMK A01 T01770139  RH  078%=      5-min Rain = 0
KHA2 161441Z 35001KT 18/14 A3004 RMK A01 T01770139  RH  078%=      5-min Rain = 0
KHA2 161442Z 00001KT 18/14 A3004 RMK A01 T01770139  RH  078%=      5-min Rain = 0
KHA2 161443Z 02002KT 18/14 A3004 RMK A01 T01770140  RH  079%=      5-min Rain = 0
KHA2 161444Z 01003KT 18/14 A3005 RMK A01 T01770139  RH  078%=      5-min Rain = 0
KHA2 161445Z 00002KT 18/14 A3005 RMK A01 T01770139  RH  078%=      5-min Rain = 0
KHA2 161446Z 01002KT 18/14 A3005 RMK A01 T01770139  RH  078%=      5-min Rain = 0
KHA2 161447Z 02002KT 18/14 A3005 RMK A01 T01770139  RH  079%=      5-min Rain = 0
KHA2 161448Z 03002KT 18/14 A3005 RMK A01 T01770140  RH  079%=      5-min Rain = 0
KHA2 161449Z 04002KT 18/14 A3005 RMK A01 T01770141  RH  079%=      5-min Rain = 0
KHA2 161450Z 04002KT 18/14 A3005 RMK A01 T01770141  RH  079%=      5-min Rain = 0
KHA2 161451Z 03001KT 18/14 A3005 RMK A01 T01770139  RH  079%=      5-min Rain = 0
KHA2 161452Z 02000KT 18/14 A3005 RMK A01 T01770140  RH  079%=      5-min Rain = 0
KHA2 161453Z 10001KT 18/14 A3005 RMK A01 T01770141  RH  079%=      5-min Rain = 0
KHA2 161454Z 11002KT 18/14 A3005 RMK A01 T01770141  RH  079%=      5-min Rain = 0
KHA2 161455Z 11002KT 18/14 A3005 RMK A01 T01770141  RH  079%=      5-min Rain = 0
KHA2 161456Z 10002KT 18/14 A3005 RMK A01 T01760143  RH  080%=      5-min Rain = 0
KHA2 161457Z 09002KT 18/14 A3005 RMK A01 T01760144  RH  081%=      5-min Rain = 0
KHA2 161458Z 09003KT 18/14 A3005 RMK A01 T01760144  RH  082%=      5-min Rain = 0
KHA2 161459Z 09003KT 18/15 A3005 RMK A01 T01760145  RH  082%=      5-min Rain = 0
KHA2 161500Z 10004KT 18/15 A3005 RMK A01 T01760147  RH  083%=      5-min Rain = 0
KHA2 161501Z 10004KT 18/15 A3005 RMK A01 T01750149  RH  084%=      5-min Rain = 0
KHA2 161502Z 09003KT 18/15 A3005 RMK A01 T01750150  RH  085%=      5-min Rain = 0
KHA2 161503Z 08002KT 17/15 A3005 RMK A01 T01740149  RH  085%=      5-min Rain = 0
KHA2 161504Z 06003KT 17/15 A3005 RMK A01 T01740148  RH  085%=      5-min Rain = 0
KHA2 161505Z 06003KT 17/15 A3005 RMK A01 T01730147  RH  084%=      5-min Rain = 0
KHA2 161506Z 04004KT 17/15 A3005 RMK A01 T01730149  RH  086%=      5-min Rain = 0
KHA2 161507Z 03005KT 17/15 A3005 RMK A01 T01730148  RH  085%=      5-min Rain = 0
KHA2 161508Z 02006KT 17/15 A3005 RMK A01 T01740148  RH  085%=      5-min Rain = 0
KHA2 161509Z 03005KT 17/15 A3005 RMK A01 T01730147  RH  084%=      5-min Rain = 0
KHA2 161510Z 04006KT 17/15 A3005 RMK A01 T01740148  RH  085%=      5-min Rain = 0
KHA2 161511Z 05007KT 17/15 A3005 RMK A01 T01740147  RH  084%=      5-min Rain = 0
KHA2 161512Z 04008KT 17/15 A3005 RMK A01 T01730147  RH  085%=      5-min Rain = 0
KHA2 161513Z 03008KT 17/15 A3006 RMK A01 T01740150  RH  086%=      5-min Rain = 0
KHA2 161514Z 02010KT 17/15 A3006 RMK A01 T01740152  RH  087%=      5-min Rain = 0
KHA2 161515Z 01011KT 17/15 A3006 RMK A01 T01740153  RH  088%=      5-min Rain = 0
KHA2 161516Z 02010KT 17/15 A3006 RMK A01 T01740151  RH  087%=      5-min Rain = 0
KHA2 161517Z 03010KT 17/15 A3006 RMK A01 T01740151  RH  086%=      5-min Rain = 0.01
KHA2 161518Z 03010KT 17/15 A3006 RMK A01 T01740151  RH  086%=      5-min Rain = 0
KHA2 161519Z 03009KT 17/15 A3006 RMK A01 T01740151  RH  086%=      5-min Rain = 0
KHA2 161520Z 03010KT 17/15 A3006 RMK A01 T01740150  RH  086%=      5-min Rain = 0
KHA2 161521Z 04010KT 17/15 A3006 RMK A01 T01740149  RH  085%=      5-min Rain = 0
KHA2 161522Z 04009KT 17/15 A3006 RMK A01 T01740150  RH  086%=      5-min Rain = 0
KHA2 161523Z 04009KT 17/15 A3006 RMK A01 T01740152  RH  087%=      5-min Rain = 0
KHA2 161524Z 03009KT 17/15 A3006 RMK A01 T01740153  RH  087%=      5-min Rain = 0
KHA2 161525Z 02009KT 17/15 A3007 RMK A01 T01740153  RH  088%=      5-min Rain = 0
KHA2 161526Z 02009KT 18/15 A3007 RMK A01 T01750152  RH  087%=      5-min Rain = 0
KHA2 161527Z 02007KT 17/15 A3007 RMK A01 T01740150  RH  086%=      5-min Rain = 0
KHA2 161528Z 04006KT 17/15 A3007 RMK A01 T01740152  RH  087%=      5-min Rain = 0
KHA2 161529Z 04009KT 17/15 A3007 RMK A01 T01740151  RH  086%=      5-min Rain = 0
KHA2 161530Z 04008KT 17/15 A3007 RMK A01 T01740151  RH  086%=      5-min Rain = 0
KHA2 161531Z 04008KT 17/15 A3007 RMK A01 T01740150  RH  086%=      5-min Rain = 0
KHA2 161532Z 03007KT 17/15 A3007 RMK A01 T01730148  RH  085%=      5-min Rain = 0
KHA2 161533Z 04007KT 17/15 A3007 RMK A01 T01730150  RH  086%=      5-min Rain = 0
KHA2 161534Z 04007KT 17/15 A3007 RMK A01 T01740153  RH  088%=      5-min Rain = 0
KHA2 161535Z 04008KT 17/15 A3007 RMK A01 T01730152  RH  087%=      5-min Rain = 0
KHA2 161536Z 04007KT 17/15 A3007 RMK A01 T01740150  RH  086%=      5-min Rain = 0
KHA2 161537Z 04008KT 17/15 A3007 RMK A01 T01730151  RH  087%=      5-min Rain = 0
KHA2 161538Z 05007KT 17/15 A3007 RMK A01 T01740153  RH  088%=      5-min Rain = 0
KHA2 161539Z 05007KT 17/15 A3007 RMK A01 T01730152  RH  087%=      5-min Rain = 0
KHA2 161540Z 05007KT 17/15 A3007 RMK A01 T01740153  RH  087%=      5-min Rain = 0
KHA2 161541Z 04007KT 17/15 A3007 RMK A01 T01740151  RH  086%=      5-min Rain = 0
KHA2 161542Z 04007KT 17/15 A3007 RMK A01 T01740149  RH  085%=      5-min Rain = 0
KHA2 161543Z 04006KT 17/15 A3007 RMK A01 T01740147  RH  084%=      5-min Rain = 0.01
KHA2 161544Z 04007KT 17/15 A3006 RMK A01 T01740149  RH  085%=      5-min Rain = 0
KHA2 161545Z 04006KT 17/15 A3006 RMK A01 T01740150  RH  086%=      5-min Rain = 0
KHA2 161546Z 04007KT 18/15 A3006 RMK A01 T01750154  RH  087%=      5-min Rain = 0
KHA2 161547Z 02006KT 18/15 A3006 RMK A01 T01750150  RH  085%=      5-min Rain = 0
KHA2 161548Z 03007KT 18/15 A3006 RMK A01 T01760151  RH  085%=      5-min Rain = 0
KHA2 161549Z 03006KT 18/15 A3006 RMK A01 T01770147  RH  082%=      5-min Rain = 0
KHA2 161550Z 02006KT 18/15 A3006 RMK A01 T01770146  RH  082%=      5-min Rain = 0
KHA2 161551Z 02006KT 18/15 A3006 RMK A01 T01780152  RH  084%=      5-min Rain = 0
KHA2 161552Z 02006KT 18/15 A3006 RMK A01 T01800151  RH  083%=      5-min Rain = 0
KHA2 161553Z 02007KT 18/15 A3006 RMK A01 T01800149  RH  082%=      5-min Rain = 0
KHA2 161554Z 03007KT 18/15 A3006 RMK A01 T01810151  RH  083%=      5-min Rain = 0
KHA2 161555Z 03007KT 18/15 A3006 RMK A01 T01810151  RH  083%=      5-min Rain = 0
KHA2 161556Z 02008KT 18/15 A3006 RMK A01 T01820154  RH  084%=      5-min Rain = 0
KHA2 161557Z 03008KT 18/16 A3006 RMK A01 T01830158  RH  085%=      5-min Rain = 0
KHA2 161558Z 03008KT 19/15 A3006 RMK A01 T01850154  RH  083%=      5-min Rain = 0
KHA2 161559Z 02009KT 19/15 A3006 RMK A01 T01850154  RH  082%=      5-min Rain = 0
KHA2 161600Z 01007KT 19/16 A3006 RMK A01 T01860155  RH  082%=      5-min Rain = 0
KHA2 161601Z 01006KT 19/15 A3006 RMK A01 T01870152  RH  080%=      5-min Rain = 0
KHA2 161602Z 02007KT 19/15 A3006 RMK A01 T01870153  RH  080%=      5-min Rain = 0
KHA2 161603Z 02009KT 19/15 A3006 RMK A01 T01880152  RH  079%=      5-min Rain = 0
KHA2 161604Z 00009KT 19/15 A3006 RMK A01 T01890153  RH  079%=      5-min Rain = 0
KHA2 161605Z 01009KT 19/15 A3005 RMK A01 T01910153  RH  079%=      5-min Rain = 0
KHA2 161606Z 01008KT 19/15 A3005 RMK A01 T01910154  RH  079%=      5-min Rain = 0
KHA2 161607Z 03009KT 19/15 A3005 RMK A01 T01920151  RH  077%=      5-min Rain = 0
KHA2 161608Z 03008KT 19/15 A3005 RMK A01 T01910149  RH  076%=      5-min Rain = 0
KHA2 161609Z 03007KT 19/16 A3005 RMK A01 T01910157  RH  081%=      5-min Rain = 0
KHA2 161610Z 02008KT 19/16 A3005 RMK A01 T01930156  RH  079%=      5-min Rain = 0
KHA2 161611Z 02007KT 19/15 A3004 RMK A01 T01930152  RH  077%=      5-min Rain = 0
KHA2 161612Z 03009KT 19/15 A3004 RMK A01 T01930152  RH  077%=      5-min Rain = 0
KHA2 161613Z 01011KT 19/15 A3004 RMK A01 T01930151  RH  076%=      5-min Rain = 0
KHA2 161614Z 01010KT 19/15 A3004 RMK A01 T01930145  RH  074%=      5-min Rain = 0
KHA2 161615Z 01009KT 19/14 A3004 RMK A01 T01930144  RH  073%=      5-min Rain = 0
KHA2 161616Z 02008KT 19/15 A3004 RMK A01 T01920149  RH  076%=      5-min Rain = 0
KHA2 161617Z 02010KT 19/15 A3004 RMK A01 T01940151  RH  076%=      5-min Rain = 0
KHA2 161618Z 02010KT 19/15 A3004 RMK A01 T01940146  RH  074%=      5-min Rain = 0
KHA2 161619Z 03010KT 19/15 A3004 RMK A01 T01940149  RH  075%=      5-min Rain = 0
KHA2 161620Z 02009KT 19/15 A3004 RMK A01 T01930147  RH  074%=      5-min Rain = 0
KHA2 161621Z 01007KT 19/15 A3004 RMK A01 T01940153  RH  077%=      5-min Rain = 0
KHA2 161622Z 02008KT 20/16 A3004 RMK A01 T01960156  RH  077%=      5-min Rain = 0
KHA2 161623Z 03009KT 20/15 A3004 RMK A01 T01970151  RH  075%=      5-min Rain = 0
KHA2 161624Z 03011KT 20/15 A3004 RMK A01 T01970149  RH  074%=      5-min Rain = 0
KHA2 161625Z 03010KT 20/15 A3004 RMK A01 T01960145  RH  072%=      5-min Rain = 0
KHA2 161626Z 03010KT 19/14 A3004 RMK A01 T01940144  RH  073%=      5-min Rain = 0
KHA2 161627Z 03009KT 19/15 A3004 RMK A01 T01940147  RH  074%=      5-min Rain = 0
KHA2 161628Z 01011KT 19/15 A3004 RMK A01 T01940149  RH  075%=      5-min Rain = 0
KHA2 161629Z 01009KT 20/15 A3004 RMK A01 T01950146  RH  073%=      5-min Rain = 0
KHA2 161630Z 01008KT 20/15 A3004 RMK A01 T01950146  RH  073%=      5-min Rain = 0
KHA2 161631Z 01010KT 20/15 A3004 RMK A01 T01960146  RH  072%=      5-min Rain = 0
KHA2 161632Z 01008KT 20/14 A3004 RMK A01 T01950142  RH  071%=      5-min Rain = 0
KHA2 161633Z 00009KT 19/14 A3004 RMK A01 T01940143  RH  072%=      5-min Rain = 0
KHA2 161634Z 02008KT 19/14 A3004 RMK A01 T01940144  RH  073%=      5-min Rain = 0
KHA2 161635Z 00009KT 20/15 A3004 RMK A01 T01950147  RH  074%=      5-min Rain = 0
KHA2 161636Z 00009KT 20/15 A3004 RMK A01 T01960146  RH  073%=      5-min Rain = 0
KHA2 161637Z 01008KT 20/15 A3004 RMK A01 T01960146  RH  073%=      5-min Rain = 0
KHA2 161638Z 01008KT 20/15 A3004 RMK A01 T01960145  RH  072%=      5-min Rain = 0
KHA2 161639Z 01007KT 20/15 A3004 RMK A01 T01950145  RH  073%=      5-min Rain = 0
KHA2 161640Z 02008KT 20/15 A3004 RMK A01 T01950146  RH  073%=      5-min Rain = 0
KHA2 161641Z 02008KT 20/15 A3004 RMK A01 T01950148  RH  074%=      5-min Rain = 0
KHA2 161642Z 01009KT 20/15 A3004 RMK A01 T01960150  RH  075%=      5-min Rain = 0
KHA2 161643Z 01009KT 20/14 A3004 RMK A01 T01970144  RH  071%=      5-min Rain = 0
KHA2 161644Z 01009KT 20/14 A3004 RMK A01 T01970142  RH  070%=      5-min Rain = 0
KHA2 161645Z 01009KT 20/15 A3004 RMK A01 T01960145  RH  072%=      5-min Rain = 0
KHA2 161646Z 01008KT 20/14 A3004 RMK A01 T01960144  RH  072%=      5-min Rain = 0
KHA2 161647Z 00007KT 20/14 A3004 RMK A01 T01960144  RH  072%=      5-min Rain = 0
KHA2 161648Z 01007KT 20/14 A3004 RMK A01 T01960144  RH  071%=      5-min Rain = 0
KHA2 161649Z 00008KT 20/15 A3004 RMK A01 T01960145  RH  072%=      5-min Rain = 0
KHA2 161650Z 35008KT 20/15 A3004 RMK A01 T01990146  RH  072%=      5-min Rain = 0
KHA2 161651Z 36008KT 20/14 A3004 RMK A01 T02000142  RH  069%=      5-min Rain = 0
KHA2 161652Z 00008KT 20/14 A3004 RMK A01 T01990140  RH  069%=      5-min Rain = 0
KHA2 161653Z 01007KT 20/14 A3004 RMK A01 T01990141  RH  069%=      5-min Rain = 0
KHA2 161654Z 02006KT 20/14 A3004 RMK A01 T01980140  RH  069%=      5-min Rain = 0
KHA2 161655Z 35005KT 20/14 A3004 RMK A01 T01970143  RH  071%=      5-min Rain = 0
KHA2 161656Z 32006KT 20/14 A3004 RMK A01 T01980144  RH  071%=      5-min Rain = 0
KHA2 161657Z 33006KT 20/15 A3004 RMK A01 T01990145  RH  071%=      5-min Rain = 0
KHA2 161658Z 33008KT 20/15 A3004 RMK A01 T01990147  RH  072%=      5-min Rain = 0
KHA2 161659Z 33007KT 20/15 A3004 RMK A01 T02000145  RH  070%=      5-min Rain = 0
KHA2 161700Z 33006KT 20/14 A3004 RMK A01 T02000144  RH  070%=      5-min Rain = 0
KHA2 161701Z 33004KT 20/14 A3004 RMK A01 T01990143  RH  070%=      5-min Rain = 0
KHA2 161702Z 33006KT 20/14 A3004 RMK A01 T01980143  RH  070%=      5-min Rain = 0
KHA2 161703Z 34006KT 20/14 A3004 RMK A01 T01970142  RH  070%=      5-min Rain = 0
KHA2 161704Z 34006KT 20/14 A3004 RMK A01 T01960142  RH  071%=      5-min Rain = 0
KHA2 161705Z 35007KT 20/14 A3004 RMK A01 T01960142  RH  071%=      5-min Rain = 0
KHA2 161706Z 35007KT 20/14 A3004 RMK A01 T01970143  RH  071%=      5-min Rain = 0
KHA2 161707Z 35005KT 20/14 A3004 RMK A01 T01980141  RH  070%=      5-min Rain = 0
KHA2 161708Z 34005G10KT 20/14 A3004 RMK A01 T01980142  RH  070%=      5-min Rain = 0
KHA2 161709Z 33007KT 20/15 A3004 RMK A01 T01990145  RH  071%=      5-min Rain = 0
KHA2 161710Z 34007KT 20/15 A3004 RMK A01 T01990146  RH  071%=      5-min Rain = 0
KHA2 161711Z 01008KT 20/14 A3004 RMK A01 T02000144  RH  070%=      5-min Rain = 0
KHA2 161712Z 36007KT 20/14 A3004 RMK A01 T02000143  RH  070%=      5-min Rain = 0
KHA2 161713Z 35006KT 20/15 A3004 RMK A01 T02000146  RH  071%=      5-min Rain = 0
KHA2 161714Z 35005KT 20/14 A3004 RMK A01 T02010141  RH  068%=      5-min Rain = 0
KHA2 161715Z 00004KT 20/14 A3004 RMK A01 T02010141  RH  069%=      5-min Rain = 0
KHA2 161716Z 00004KT 20/14 A3004 RMK A01 T02010141  RH  068%=      5-min Rain = 0
KHA2 161717Z 34006KT 20/14 A3004 RMK A01 T02000142  RH  069%=      5-min Rain = 0
KHA2 161718Z 33006KT 20/14 A3004 RMK A01 T02010143  RH  070%=      5-min Rain = 0
KHA2 161719Z 33006KT 20/14 A3004 RMK A01 T02010142  RH  069%=      5-min Rain = 0
KHA2 161720Z 33006KT 20/14 A3004 RMK A01 T02010142  RH  069%=      5-min Rain = 0
KHA2 161721Z 33007KT 20/14 A3004 RMK A01 T02010143  RH  069%=      5-min Rain = 0
KHA2 161722Z 33007KT 20/14 A3004 RMK A01 T02010144  RH  070%=      5-min Rain = 0
KHA2 161723Z 34006KT 20/14 A3004 RMK A01 T02010142  RH  069%=      5-min Rain = 0
KHA2 161724Z 34005KT 20/14 A3004 RMK A01 T02010143  RH  069%=      5-min Rain = 0
KHA2 161725Z 32006KT 20/14 A3004 RMK A01 T02010144  RH  070%=      5-min Rain = 0
KHA2 161726Z 32006KT 20/14 A3004 RMK A01 T02010143  RH  069%=      5-min Rain = 0
KHA2 161727Z 33006KT 20/14 A3004 RMK A01 T02020141  RH  068%=      5-min Rain = 0
KHA2 161728Z 33005KT 20/14 A3004 RMK A01 T02020142  RH  068%=      5-min Rain = 0
KHA2 161729Z 35006KT 20/14 A3004 RMK A01 T02020142  RH  068%=      5-min Rain = 0
KHA2 161730Z 34005KT 20/14 A3004 RMK A01 T02020144  RH  069%=      5-min Rain = 0
KHA2 161731Z 01004KT 20/15 A3004 RMK A01 T02040148  RH  070%=      5-min Rain = 0
KHA2 161732Z 02004KT 21/14 A3004 RMK A01 T02050144  RH  068%=      5-min Rain = 0
KHA2 161733Z 35006KT 21/14 A3004 RMK A01 T02060144  RH  068%=      5-min Rain = 0
KHA2 161734Z 33004KT 21/14 A3004 RMK A01 T02050142  RH  067%=      5-min Rain = 0
KHA2 161735Z 33004KT 21/14 A3004 RMK A01 T02050142  RH  067%=      5-min Rain = 0
KHA2 161736Z 34006KT 21/14 A3004 RMK A01 T02050141  RH  067%=      5-min Rain = 0
KHA2 161737Z 33004KT 21/14 A3004 RMK A01 T02050141  RH  067%=      5-min Rain = 0
KHA2 161738Z 34004KT 20/14 A3004 RMK A01 T02040140  RH  067%=      5-min Rain = 0
KHA2 161739Z 35005KT 20/14 A3004 RMK A01 T02040140  RH  066%=      5-min Rain = 0
KHA2 161740Z 34005KT 21/14 A3004 RMK A01 T02050140  RH  066%=      5-min Rain = 0
KHA2 161741Z 33004KT 21/14 A3004 RMK A01 T02050140  RH  066%=      5-min Rain = 0
KHA2 161742Z 31003KT 21/14 A3004 RMK A01 T02050140  RH  066%=      5-min Rain = 0
KHA2 161743Z 34003KT 20/14 A3004 RMK A01 T02040142  RH  067%=      5-min Rain = 0
KHA2 161744Z 32004KT 21/14 A3004 RMK A01 T02050144  RH  068%=      5-min Rain = 0
KHA2 161745Z 31005KT 21/14 A3004 RMK A01 T02060144  RH  068%=      5-min Rain = 0
KHA2 161746Z 31005KT 21/15 A3004 RMK A01 T02060145  RH  068%=      5-min Rain = 0
KHA2 161747Z 33005KT 21/14 A3004 RMK A01 T02070143  RH  067%=      5-min Rain = 0
KHA2 161748Z 00004KT 21/14 A3004 RMK A01 T02060142  RH  066%=      5-min Rain = 0
KHA2 161749Z 35005KT 21/15 A3004 RMK A01 T02060145  RH  068%=      5-min Rain = 0
KHA2 161750Z 35005KT 21/14 A3004 RMK A01 T02070144  RH  067%=      5-min Rain = 0
KHA2 161751Z 34007KT 21/15 A3004 RMK A01 T02080149  RH  069%=      5-min Rain = 0
KHA2 161752Z 34007KT 21/15 A3004 RMK A01 T02100146  RH  067%=      5-min Rain = 0
KHA2 161753Z 34006KT 21/15 A3004 RMK A01 T02110145  RH  066%=      5-min Rain = 0
KHA2 161754Z 32005KT 21/14 A3004 RMK A01 T02110144  RH  066%=      5-min Rain = 0
KHA2 161755Z 31005KT 21/14 A3004 RMK A01 T02100141  RH  064%=      5-min Rain = 0
KHA2 161756Z 31005KT 21/14 A3004 RMK A01 T02090142  RH  066%=      5-min Rain = 0
KHA2 161757Z 31004KT 21/14 A3004 RMK A01 T02090142  RH  065%=      5-min Rain = 0
KHA2 161758Z 34005KT 21/14 A3004 RMK A01 T02090141  RH  065%=      5-min Rain = 0
KHA2 161759Z 35004KT 21/14 A3004 RMK A01 T02090142  RH  065%=      5-min Rain = 0
KHA2 161800Z 36004KT 21/14 A3004 RMK A01 T02080141  RH  066%=      5-min Rain = 0
KHA2 161801Z 31003KT 21/14 A3004 RMK A01 T02080143  RH  066%=      5-min Rain = 0
KHA2 161802Z 29002KT 21/14 A3004 RMK A01 T02080139  RH  064%=      5-min Rain = 0
KHA2 161803Z 31003KT 21/14 A3004 RMK A01 T02080140  RH  065%=      5-min Rain = 0
KHA2 161804Z 32004KT 21/14 A3004 RMK A01 T02080142  RH  066%=      5-min Rain = 0
KHA2 161805Z 35004KT 21/14 A3004 RMK A01 T02090142  RH  065%=      5-min Rain = 0
KHA2 161806Z 33005KT 21/14 A3004 RMK A01 T02090142  RH  065%=      5-min Rain = 0
KHA2 161807Z 32004KT 21/14 A3004 RMK A01 T02090144  RH  066%=      5-min Rain = 0
KHA2 161808Z 33005KT 21/14 A3004 RMK A01 T02100141  RH  065%=      5-min Rain = 0
KHA2 161809Z 34004KT 21/14 A3004 RMK A01 T02100144  RH  066%=      5-min Rain = 0
KHA2 161810Z 34003KT 21/14 A3004 RMK A01 T02090144  RH  066%=      5-min Rain = 0
KHA2 161811Z 29002KT 21/15 A3004 RMK A01 T02110150  RH  068%=      5-min Rain = 0
KHA2 161812Z 27003KT 21/14 A3003 RMK A01 T02130144  RH  065%=      5-min Rain = 0
KHA2 161813Z 25003KT 21/14 A3003 RMK A01 T02140144  RH  064%=      5-min Rain = 0
KHA2 161814Z 27003KT 21/14 A3003 RMK A01 T02120144  RH  065%=      5-min Rain = 0
KHA2 161815Z 28003KT 21/15 A3003 RMK A01 T02130146  RH  065%=      5-min Rain = 0
KHA2 161816Z 33006KT 21/15 A3003 RMK A01 T02140147  RH  066%=      5-min Rain = 0
KHA2 161817Z 32005KT 22/14 A3003 RMK A01 T02150144  RH  064%=      5-min Rain = 0
KHA2 161818Z 35005KT 22/14 A3003 RMK A01 T02150144  RH  064%=      5-min Rain = 0
KHA2 161819Z 34006KT 21/15 A3003 RMK A01 T02140145  RH  065%=      5-min Rain = 0
KHA2 161820Z 33005KT 21/15 A3003 RMK A01 T02140145  RH  064%=      5-min Rain = 0
KHA2 161821Z 30003KT 21/14 A3003 RMK A01 T02140143  RH  064%=      5-min Rain = 0
KHA2 161822Z 32002KT 21/14 A3003 RMK A01 T02140142  RH  063%=      5-min Rain = 0
KHA2 161823Z 29001KT 21/14 A3003 RMK A01 T02140143  RH  064%=      5-min Rain = 0
KHA2 161824Z 30003KT 22/14 A3003 RMK A01 T02150143  RH  063%=      5-min Rain = 0
KHA2 161825Z 33003KT 22/14 A3003 RMK A01 T02150141  RH  063%=      5-min Rain = 0
KHA2 161826Z 35004KT 22/14 A3003 RMK A01 T02150141  RH  063%=      5-min Rain = 0
KHA2 161827Z 01003KT 22/14 A3003 RMK A01 T02160142  RH  063%=      5-min Rain = 0
KHA2 161828Z 33004KT 22/15 A3003 RMK A01 T02160145  RH  064%=      5-min Rain = 0
KHA2 161829Z 30006KT 22/14 A3003 RMK A01 T02170142  RH  062%=      5-min Rain = 0
KHA2 161830Z 32005KT 22/14 A3003 RMK A01 T02190142  RH  062%=      5-min Rain = 0
KHA2 161831Z 33005KT 22/14 A3003 RMK A01 T02190137  RH  059%=      5-min Rain = 0
KHA2 161832Z 34004KT 22/14 A3003 RMK A01 T02180136  RH  060%=      5-min Rain = 0
KHA2 161833Z 34002KT 22/13 A3003 RMK A01 T02160130  RH  058%=      5-min Rain = 0
KHA2 161834Z 35002KT 22/13 A3003 RMK A01 T02150132  RH  059%=      5-min Rain = 0
KHA2 161835Z 31002KT 22/13 A3002 RMK A01 T02150134  RH  060%=      5-min Rain = 0
KHA2 161836Z 32002KT 22/13 A3002 RMK A01 T02160132  RH  059%=      5-min Rain = 0
KHA2 161837Z 33002KT 22/13 A3002 RMK A01 T02160132  RH  059%=      5-min Rain = 0
KHA2 161838Z 34002KT 22/14 A3002 RMK A01 T02180136  RH  060%=      5-min Rain = 0
KHA2 161839Z 35000KT 22/14 A3002 RMK A01 T02190137  RH  060%=      5-min Rain = 0
KHA2 161840Z 34001KT 22/14 A3002 RMK A01 T02180135  RH  059%=      5-min Rain = 0
KHA2 161841Z 32004KT 22/14 A3002 RMK A01 T02180137  RH  060%=      5-min Rain = 0
KHA2 161842Z 33006KT 22/14 A3002 RMK A01 T02190135  RH  059%=      5-min Rain = 0
KHA2 161843Z 33005KT 22/13 A3002 RMK A01 T02200132  RH  057%=      5-min Rain = 0
KHA2 161844Z 32004KT 22/13 A3002 RMK A01 T02200131  RH  057%=      5-min Rain = 0
KHA2 161845Z 31005KT 22/13 A3002 RMK A01 T02190128  RH  056%=      5-min Rain = 0
KHA2 161846Z 31003KT 22/13 A3002 RMK A01 T02190126  RH  055%=      5-min Rain = 0
KHA2 161847Z 32004KT 22/13 A3002 RMK A01 T02190125  RH  055%=      5-min Rain = 0
KHA2 161848Z 31003KT 22/13 A3002 RMK A01 T02190125  RH  055%=      5-min Rain = 0
KHA2 161849Z 31001KT 22/13 A3002 RMK A01 T02190128  RH  056%=      5-min Rain = 0
KHA2 161850Z 33000KT 22/13 A3002 RMK A01 T02180131  RH  058%=      5-min Rain = 0
KHA2 161851Z 34000KT 22/13 A3002 RMK A01 T02190134  RH  059%=      5-min Rain = 0
KHA2 161852Z 01001KT 22/14 A3002 RMK A01 T02210137  RH  059%=      5-min Rain = 0
KHA2 161853Z 01002KT 22/13 A3002 RMK A01 T02220133  RH  057%=      5-min Rain = 0
KHA2 161854Z 31002KT 22/14 A3002 RMK A01 T02220137  RH  059%=      5-min Rain = 0
KHA2 161855Z 30006KT 22/14 A3002 RMK A01 T02220136  RH  058%=      5-min Rain = 0
KHA2 161856Z 33005KT 22/14 A3002 RMK A01 T02230135  RH  057%=      5-min Rain = 0
KHA2 161857Z 34003KT 22/14 A3002 RMK A01 T02230135  RH  058%=      5-min Rain = 0
KHA2 161858Z 34002KT 22/14 A3002 RMK A01 T02220135  RH  058%=      5-min Rain = 0
KHA2 161859Z 34002KT 22/14 A3002 RMK A01 T02210136  RH  058%=      5-min Rain = 0
KHA2 161900Z 33004KT 22/14 A3002 RMK A01 T02220135  RH  058%=      5-min Rain = 0
KHA2 161901Z 33006KT 22/14 A3002 RMK A01 T02230136  RH  058%=      5-min Rain = 0
KHA2 161902Z 33005KT 23/14 A3002 RMK A01 T02250135  RH  057%=      5-min Rain = 0
KHA2 161903Z 32003KT 23/13 A3002 RMK A01 T02250134  RH  056%=      5-min Rain = 0
KHA2 161904Z 33001KT 22/13 A3002 RMK A01 T02240134  RH  057%=      5-min Rain = 0
KHA2 161905Z 01004KT 22/14 A3002 RMK A01 T02240137  RH  058%=      5-min Rain = 0
KHA2 161906Z 00006KT 23/14 A3002 RMK A01 T02250138  RH  058%=      5-min Rain = 0
KHA2 161907Z 35006KT 23/14 A3002 RMK A01 T02250137  RH  057%=      5-min Rain = 0
KHA2 161908Z 00004KT 22/13 A3002 RMK A01 T02240134  RH  056%=      5-min Rain = 0
KHA2 161909Z 36004KT 22/14 A3002 RMK A01 T02240135  RH  057%=      5-min Rain = 0
KHA2 161910Z 01002KT 22/13 A3002 RMK A01 T02230132  RH  057%=      5-min Rain = 0
KHA2 161911Z 02002KT 22/13 A3002 RMK A01 T02220132  RH  057%=      5-min Rain = 0
KHA2 161912Z 02002KT 22/13 A3002 RMK A01 T02220132  RH  057%=      5-min Rain = 0
KHA2 161913Z 02003KT 22/13 A3002 RMK A01 T02220134  RH  057%=      5-min Rain = 0
KHA2 161914Z 01005KT 22/13 A3002 RMK A01 T02230132  RH  056%=      5-min Rain = 0
KHA2 161915Z 01006KT 22/13 A3002 RMK A01 T02230130  RH  056%=      5-min Rain = 0
KHA2 161916Z 34004KT 22/13 A3002 RMK A01 T02240133  RH  056%=      5-min Rain = 0
KHA2 161917Z 31003KT 23/13 A3002 RMK A01 T02260132  RH  055%=      5-min Rain = 0
KHA2 161918Z 31003KT 23/13 A3002 RMK A01 T02270128  RH  054%=      5-min Rain = 0
KHA2 161919Z 30003KT 23/13 A3001 RMK A01 T02280131  RH  054%=      5-min Rain = 0
KHA2 161920Z 28001KT 23/13 A3001 RMK A01 T02290131  RH  054%=      5-min Rain = 0
KHA2 161921Z 23002KT 23/13 A3001 RMK A01 T02300133  RH  054%=      5-min Rain = 0
KHA2 161922Z 35000KT 23/14 A3001 RMK A01 T02310137  RH  056%=      5-min Rain = 0
KHA2 161923Z 00004KT 23/14 A3001 RMK A01 T02330135  RH  054%=      5-min Rain = 0
KHA2 161924Z 35004KT 23/14 A3001 RMK A01 T02330137  RH  055%=      5-min Rain = 0
KHA2 161925Z 01003KT 23/14 A3001 RMK A01 T02330136  RH  055%=      5-min Rain = 0
KHA2 161926Z 30003KT 23/14 A3001 RMK A01 T02320136  RH  055%=      5-min Rain = 0
KHA2 161927Z 31003KT 23/13 A3001 RMK A01 T02310133  RH  054%=      5-min Rain = 0
KHA2 161928Z 31003KT 23/13 A3001 RMK A01 T02300134  RH  055%=      5-min Rain = 0
KHA2 161929Z 33005KT 23/13 A3001 RMK A01 T02300134  RH  055%=      5-min Rain = 0
KHA2 161930Z 34003KT 23/13 A3001 RMK A01 T02310134  RH  054%=      5-min Rain = 0
KHA2 161931Z 00004KT 23/14 A3001 RMK A01 T02330137  RH  055%=      5-min Rain = 0
KHA2 161932Z 01004KT 23/13 A3001 RMK A01 T02340133  RH  053%=      5-min Rain = 0
KHA2 161933Z 34006KT 23/13 A3001 RMK A01 T02320133  RH  054%=      5-min Rain = 0
KHA2 161934Z 34004KT 23/13 A3001 RMK A01 T02320134  RH  054%=      5-min Rain = 0
KHA2 161935Z 31003KT 23/14 A3001 RMK A01 T02340136  RH  054%=      5-min Rain = 0
KHA2 161936Z 31005KT 24/14 A3001 RMK A01 T02380136  RH  053%=      5-min Rain = 0
KHA2 161937Z 30005KT 24/13 A3001 RMK A01 T02380133  RH  052%=      5-min Rain = 0
KHA2 161938Z 32006KT 24/13 A3001 RMK A01 T02360134  RH  053%=      5-min Rain = 0
KHA2 161939Z 32006KT 24/14 A3001 RMK A01 T02360136  RH  053%=      5-min Rain = 0
KHA2 161940Z 33005KT 24/14 A3001 RMK A01 T02370135  RH  053%=      5-min Rain = 0
KHA2 161941Z 34003KT 24/14 A3001 RMK A01 T02370136  RH  053%=      5-min Rain = 0
KHA2 161942Z 35004KT 24/14 A3001 RMK A01 T02370135  RH  053%=      5-min Rain = 0
KHA2 161943Z 35003KT 24/13 A3001 RMK A01 T02350134  RH  053%=      5-min Rain = 0
KHA2 161944Z 35004KT 24/13 A3001 RMK A01 T02350134  RH  053%=      5-min Rain = 0
KHA2 161945Z 01003KT 23/13 A3001 RMK A01 T02340132  RH  053%=      5-min Rain = 0
KHA2 161946Z 04005KT 23/14 A3001 RMK A01 T02340135  RH  054%=      5-min Rain = 0
KHA2 161947Z 05004KT 23/13 A3001 RMK A01 T02340132  RH  053%=      5-min Rain = 0
KHA2 161948Z 06003KT 23/13 A3001 RMK A01 T02340130  RH  052%=      5-min Rain = 0
KHA2 161949Z 04003KT 23/13 A3001 RMK A01 T02340131  RH  053%=      5-min Rain = 0
KHA2 161950Z 08004KT 23/14 A3001 RMK A01 T02340135  RH  054%=      5-min Rain = 0
KHA2 161951Z 07002KT 24/13 A3001 RMK A01 T02350132  RH  052%=      5-min Rain = 0
KHA2 161952Z 08003KT 24/13 A3001 RMK A01 T02360134  RH  053%=      5-min Rain = 0
KHA2 161953Z 01004KT 24/14 A3001 RMK A01 T02370139  RH  054%=      5-min Rain = 0
KHA2 161954Z 02004KT 24/13 A3001 RMK A01 T02410134  RH  051%=      5-min Rain = 0
KHA2 161955Z 02005KT 24/14 A3001 RMK A01 T02440138  RH  051%=      5-min Rain = 0
KHA2 161956Z 02008KT 25/13 A3001 RMK A01 T02460134  RH  050%=      5-min Rain = 0
KHA2 161957Z 36007G12KT 25/13 A3001 RMK A01 T02460133  RH  049%=      5-min Rain = 0
KHA2 161958Z 34008KT 25/13 A3001 RMK A01 T02450131  RH  049%=      5-min Rain = 0
KHA2 161959Z 36006KT 24/13 A3001 RMK A01 T02440128  RH  048%=      5-min Rain = 0
KHA2 162000Z 01008KT 24/13 A3001 RMK A01 T02440128  RH  048%=      5-min Rain = 0
KHA2 162001Z 01009KT 24/13 A3001 RMK A01 T02440129  RH  049%=      5-min Rain = 0
KHA2 162002Z 01009KT 25/13 A3001 RMK A01 T02460127  RH  048%=      5-min Rain = 0
KHA2 162003Z 00007KT 25/12 A3001 RMK A01 T02460123  RH  046%=      5-min Rain = 0
KHA2 162004Z 01006KT 25/12 A3001 RMK A01 T02450124  RH  047%=      5-min Rain = 0
KHA2 162005Z 02005KT 24/13 A3001 RMK A01 T02440125  RH  047%=      5-min Rain = 0
KHA2 162006Z 01006KT 24/13 A3001 RMK A01 T02430126  RH  048%=      5-min Rain = 0
KHA2 162007Z 01005KT 25/13 A3001 RMK A01 T02450131  RH  049%=      5-min Rain = 0
KHA2 162008Z 01003G8KT 25/13 A3001 RMK A01 T02460126  RH  047%=      5-min Rain = 0
KHA2 162009Z 34007KT 25/13 A3001 RMK A01 T02460128  RH  048%=      5-min Rain = 0
KHA2 162010Z 34005KT 25/13 A30 RMK A01 T02450127  RH  048%=      5-min Rain = 0
KHA2 162011Z 29004KT 25/13 A30 RMK A01 T02450128  RH  048%=      5-min Rain = 0
KHA2 162012Z 31003KT 25/13 A30 RMK A01 T02470130  RH  048%=      5-min Rain = 0
KHA2 162013Z 35003KT 25/13 A30 RMK A01 T02490128  RH  047%=      5-min Rain = 0
KHA2 162014Z 35005KT 25/13 A30 RMK A01 T02490131  RH  048%=      5-min Rain = 0
KHA2 162015Z 36004KT 25/13 A30 RMK A01 T02500129  RH  047%=      5-min Rain = 0
KHA2 162016Z 34004KT 25/13 A30 RMK A01 T02490129  RH  047%=      5-min Rain = 0
KHA2 162017Z 36001KT 25/13 A30 RMK A01 T02490132  RH  048%=      5-min Rain = 0
KHA2 162018Z 02005KT 25/13 A30 RMK A01 T02520132  RH  047%=      5-min Rain = 0
KHA2 162019Z 03003KT 25/13 A30 RMK A01 T02510131  RH  047%=      5-min Rain = 0
KHA2 162020Z 03002KT 25/13 A30 RMK A01 T02510128  RH  047%=      5-min Rain = 0
KHA2 162021Z 35006G11KT 25/13 A2999 RMK A01 T02510133  RH  048%=      5-min Rain = 0
KHA2 162022Z 34009KT 26/13 A30 RMK A01 T02550126  RH  045%=      5-min Rain = 0
KHA2 162023Z 34008KT 26/12 A2999 RMK A01 T02560122  RH  043%=      5-min Rain = 0
KHA2 162024Z 36004KT 26/12 A30 RMK A01 T02550120  RH  043%=      5-min Rain = 0
KHA2 162025Z 04001KT 25/12 A2999 RMK A01 T02530122  RH  044%=      5-min Rain = 0
KHA2 162026Z 36005G10KT 25/13 A2999 RMK A01 T02530126  RH  045%=      5-min Rain = 0
KHA2 162027Z 00008KT 26/13 A2999 RMK A01 T02550126  RH  045%=      5-min Rain = 0
KHA2 162028Z 36008KT 26/13 A2999 RMK A01 T02570128  RH  045%=      5-min Rain = 0
KHA2 162029Z 35006KT 26/12 A2999 RMK A01 T02570119  RH  042%=      5-min Rain = 0
KHA2 162030Z 35005KT 25/12 A2999 RMK A01 T02530120  RH  043%=      5-min Rain = 0
KHA2 162031Z 36002KT 25/12 A2999 RMK A01 T02510117  RH  043%=      5-min Rain = 0
KHA2 162032Z 00003KT 25/12 A2999 RMK A01 T02520121  RH  044%=      5-min Rain = 0
KHA2 162033Z 02008KT 26/12 A2999 RMK A01 T02550123  RH  044%=      5-min Rain = 0
KHA2 162034Z 02006KT 26/12 A2999 RMK A01 T02560122  RH  043%=      5-min Rain = 0
KHA2 162035Z 35008KT 26/13 A2999 RMK A01 T02560126  RH  044%=      5-min Rain = 0
KHA2 162036Z 01010KT 26/12 A2999 RMK A01 T02590123  RH  043%=      5-min Rain = 0
KHA2 162037Z 02010KT 26/12 A2999 RMK A01 T02600123  RH  042%=      5-min Rain = 0
KHA2 162038Z 01008KT 26/12 A2999 RMK A01 T02570118  RH  042%=      5-min Rain = 0
KHA2 162039Z 02006KT 26/12 A2999 RMK A01 T02550120  RH  043%=      5-min Rain = 0
KHA2 162040Z 01006KT 25/12 A2999 RMK A01 T02530119  RH  043%=      5-min Rain = 0
KHA2 162041Z 01009KT 25/12 A2999 RMK A01 T02540124  RH  044%=      5-min Rain = 0
KHA2 162042Z 02008KT 26/12 A2999 RMK A01 T02560124  RH  044%=      5-min Rain = 0
KHA2 162043Z 35006KT 26/13 A2999 RMK A01 T02570125  RH  044%=      5-min Rain = 0
KHA2 162044Z 03005KT 26/13 A2999 RMK A01 T02560125  RH  044%=      5-min Rain = 0
KHA2 162045Z 00008KT 26/13 A2999 RMK A01 T02560127  RH  045%=      5-min Rain = 0
KHA2 162046Z 01008KT 26/13 A2999 RMK A01 T02580127  RH  044%=      5-min Rain = 0
KHA2 162047Z 36005KT 26/12 A2999 RMK A01 T02580122  RH  043%=      5-min Rain = 0
KHA2 162048Z 00003KT 26/12 A2999 RMK A01 T02550120  RH  043%=      5-min Rain = 0
KHA2 162049Z 04004KT 25/12 A2999 RMK A01 T02530119  RH  043%=      5-min Rain = 0
KHA2 162050Z 36008KT 25/12 A2999 RMK A01 T02520121  RH  044%=      5-min Rain = 0
KHA2 162051Z 00008KT 25/12 A2999 RMK A01 T02520124  RH  045%=      5-min Rain = 0
KHA2 162052Z 36008KT 25/12 A2999 RMK A01 T02520123  RH  045%=      5-min Rain = 0
KHA2 162053Z 00006KT 25/12 A2999 RMK A01 T02520122  RH  044%=      5-min Rain = 0
KHA2 162054Z 34005KT 25/12 A2999 RMK A01 T02510121  RH  044%=      5-min Rain = 0
KHA2 162055Z 34006KT 25/12 A2999 RMK A01 T02510122  RH  044%=      5-min Rain = 0
KHA2 162056Z 35001KT 25/12 A2998 RMK A01 T02520120  RH  044%=      5-min Rain = 0
KHA2 162057Z 18000KT 25/12 A2998 RMK A01 T02510120  RH  044%=      5-min Rain = 0
KHA2 162058Z 35001KT 25/12 A2998 RMK A01 T02520124  RH  045%=      5-min Rain = 0
KHA2 162059Z 35007KT 25/13 A2998 RMK A01 T02530126  RH  045%=      5-min Rain = 0
KHA2 162100Z 33007KT 25/13 A2998 RMK A01 T02530125  RH  045%=      5-min Rain = 0
KHA2 162101Z 33009KT 25/13 A2998 RMK A01 T02520126  RH  045%=      5-min Rain = 0
KHA2 162102Z 34009KT 26/13 A2998 RMK A01 T02560126  RH  044%=      5-min Rain = 0
KHA2 162103Z 34009KT 26/13 A2998 RMK A01 T02570126  RH  044%=      5-min Rain = 0
KHA2 162104Z 35006KT 26/13 A2999 RMK A01 T02560127  RH  045%=      5-min Rain = 0
KHA2 162105Z 36005KT 26/13 A2999 RMK A01 T02560128  RH  045%=      5-min Rain = 0
KHA2 162106Z 34003KT 26/13 A2999 RMK A01 T02550126  RH  045%=      5-min Rain = 0
KHA2 162107Z 33003KT 25/13 A2999 RMK A01 T02530126  RH  045%=      5-min Rain = 0
KHA2 162108Z 32004KT 25/13 A2999 RMK A01 T02520126  RH  046%=      5-min Rain = 0
KHA2 162109Z 35002KT 25/13 A2999 RMK A01 T02520126  RH  046%=      5-min Rain = 0
KHA2 162110Z 35003KT 25/13 A2999 RMK A01 T02520130  RH  047%=      5-min Rain = 0
KHA2 162111Z 01006KT 25/13 A2999 RMK A01 T02530132  RH  047%=      5-min Rain = 0
KHA2 162112Z 35004KT 25/13 A2998 RMK A01 T02530133  RH  047%=      5-min Rain = 0
KHA2 162113Z 02007KT 25/13 A2999 RMK A01 T02520131  RH  047%=      5-min Rain = 0
KHA2 162114Z 02004KT 25/13 A2999 RMK A01 T02500132  RH  048%=      5-min Rain = 0
KHA2 162115Z 04004KT 25/13 A2999 RMK A01 T02490131  RH  048%=      5-min Rain = 0
KHA2 162116Z 05003KT 25/14 A2999 RMK A01 T02480136  RH  049%=      5-min Rain = 0
KHA2 162117Z 03005KT 25/14 A2999 RMK A01 T02500139  RH  050%=      5-min Rain = 0
KHA2 162118Z 02009KT 25/14 A2998 RMK A01 T02530137  RH  049%=      5-min Rain = 0
KHA2 162119Z 02007KT 25/13 A2998 RMK A01 T02530134  RH  048%=      5-min Rain = 0
KHA2 162120Z 01007KT 25/14 A2998 RMK A01 T02520136  RH  049%=      5-min Rain = 0
KHA2 162121Z 35007KT 25/14 A2998 RMK A01 T02540136  RH  048%=      5-min Rain = 0
KHA2 162122Z 01005KT 26/14 A2998 RMK A01 T02570138  RH  048%=      5-min Rain = 0
KHA2 162123Z 05006KT 26/14 A2998 RMK A01 T02580142  RH  048%=      5-min Rain = 0
KHA2 162124Z 01007KT 26/14 A2998 RMK A01 T02620144  RH  048%=      5-min Rain = 0
KHA2 162125Z 03009KT 26/14 A2998 RMK A01 T02640140  RH  046%=      5-min Rain = 0
KHA2 162126Z 05009KT 26/14 A2998 RMK A01 T02620138  RH  046%=      5-min Rain = 0
KHA2 162127Z 06008KT 26/14 A2998 RMK A01 T02600143  RH  049%=      5-min Rain = 0
KHA2 162128Z 04009KT 26/14 A2998 RMK A01 T02620143  RH  048%=      5-min Rain = 0
KHA2 162129Z 06007KT 26/14 A2998 RMK A01 T02620142  RH  047%=      5-min Rain = 0
KHA2 162130Z 05008KT 26/14 A2998 RMK A01 T02640144  RH  048%=      5-min Rain = 0
KHA2 162131Z 07009KT 27/14 A2998 RMK A01 T02650144  RH  047%=      5-min Rain = 0
KHA2 162132Z 05009KT 27/14 A2998 RMK A01 T02650141  RH  047%=      5-min Rain = 0
KHA2 162133Z 05007KT 26/14 A2998 RMK A01 T02620135  RH  046%=      5-min Rain = 0
KHA2 162134Z 07010KT 26/14 A2998 RMK A01 T02600144  RH  049%=      5-min Rain = 0
KHA2 162135Z 07007KT 26/14 A2998 RMK A01 T02600137  RH  047%=      5-min Rain = 0
KHA2 162136Z 03007KT 26/14 A2998 RMK A01 T02580141  RH  048%=      5-min Rain = 0
KHA2 162137Z 02010KT 26/14 A2998 RMK A01 T02610139  RH  047%=      5-min Rain = 0
KHA2 162138Z 02006KT 26/13 A2998 RMK A01 T02600133  RH  045%=      5-min Rain = 0
KHA2 162139Z 05010KT 26/14 A2998 RMK A01 T02570136  RH  047%=      5-min Rain = 0
KHA2 162140Z 03007KT 26/14 A2998 RMK A01 T02580135  RH  047%=      5-min Rain = 0
KHA2 162141Z 05006KT 26/14 A2998 RMK A01 T02570135  RH  047%=      5-min Rain = 0
KHA2 162142Z 07008KT 26/14 A2998 RMK A01 T02570136  RH  047%=      5-min Rain = 0
KHA2 162143Z 07009KT 26/14 A2998 RMK A01 T02560141  RH  049%=      5-min Rain = 0
KHA2 162144Z 05011KT 26/14 A2998 RMK A01 T02580141  RH  048%=      5-min Rain = 0
KHA2 162145Z 05007KT 26/14 A2998 RMK A01 T02600135  RH  046%=      5-min Rain = 0
KHA2 162146Z 04007KT 26/14 A2998 RMK A01 T02590139  RH  047%=      5-min Rain = 0
KHA2 162147Z 02005KT 26/14 A2998 RMK A01 T02590138  RH  047%=      5-min Rain = 0
KHA2 162148Z 05006KT 26/14 A2998 RMK A01 T02600141  RH  048%=      5-min Rain = 0
KHA2 162149Z 04006KT 26/15 A2998 RMK A01 T02640146  RH  048%=      5-min Rain = 0
KHA2 162150Z 00007KT 27/14 A2998 RMK A01 T02670138  RH  045%=      5-min Rain = 0
KHA2 162151Z 35005KT 26/14 A2998 RMK A01 T02640135  RH  045%=      5-min Rain = 0
KHA2 162152Z 04005KT 26/14 A2998 RMK A01 T02610138  RH  046%=      5-min Rain = 0
KHA2 162153Z 05002KT 26/14 A2998 RMK A01 T02610138  RH  046%=      5-min Rain = 0
KHA2 162154Z 09002KT 26/14 A2998 RMK A01 T02600139  RH  047%=      5-min Rain = 0
KHA2 162155Z 07006KT 26/14 A2998 RMK A01 T02600140  RH  048%=      5-min Rain = 0
KHA2 162156Z 06009KT 26/14 A2998 RMK A01 T02590144  RH  049%=      5-min Rain = 0
KHA2 162157Z 06007KT 26/14 A2998 RMK A01 T02590138  RH  047%=      5-min Rain = 0
KHA2 162158Z 05002KT 26/14 A2998 RMK A01 T02580138  RH  047%=      5-min Rain = 0
KHA2 162159Z 08005KT 26/14 A2998 RMK A01 T02570139  RH  048%=      5-min Rain = 0
KHA2 162200Z 07007KT 26/14 A2998 RMK A01 T02570140  RH  049%=      5-min Rain = 0
KHA2 162201Z 08006KT 26/14 A2998 RMK A01 T02570140  RH  048%=      5-min Rain = 0
KHA2 162202Z 08004KT 26/14 A2998 RMK A01 T02570139  RH  048%=      5-min Rain = 0
KHA2 162203Z 08006KT 26/14 A2998 RMK A01 T02570140  RH  049%=      5-min Rain = 0
KHA2 162204Z 08006KT 26/14 A2998 RMK A01 T02570140  RH  049%=      5-min Rain = 0
KHA2 162205Z 03009KT 26/14 A2998 RMK A01 T02570143  RH  049%=      5-min Rain = 0
KHA2 162206Z 02013KT 26/14 A2998 RMK A01 T02580141  RH  048%=      5-min Rain = 0
KHA2 162207Z 02011KT 26/14 A2998 RMK A01 T02590140  RH  048%=      5-min Rain = 0
KHA2 162208Z 03008KT 26/14 A2998 RMK A01 T02590138  RH  047%=      5-min Rain = 0
KHA2 162209Z 04004KT 26/14 A2998 RMK A01 T02580135  RH  046%=      5-min Rain = 0
KHA2 162210Z 06005KT 26/14 A2998 RMK A01 T02560136  RH  048%=      5-min Rain = 0
KHA2 162211Z 06004KT 26/14 A2998 RMK A01 T02550136  RH  048%=      5-min Rain = 0
KHA2 162212Z 05005KT 26/14 A2998 RMK A01 T02550136  RH  048%=      5-min Rain = 0
KHA2 162213Z 06005KT 25/14 A2998 RMK A01 T02540138  RH  049%=      5-min Rain = 0
KHA2 162214Z 07005KT 25/14 A2998 RMK A01 T02540141  RH  049%=      5-min Rain = 0
KHA2 162215Z 03005KT 26/14 A2998 RMK A01 T02550141  RH  049%=      5-min Rain = 0
KHA2 162216Z 03007KT 26/13 A2998 RMK A01 T02560132  RH  046%=      5-min Rain = 0
KHA2 162217Z 00008KT 26/13 A2998 RMK A01 T02550132  RH  047%=      5-min Rain = 0
KHA2 162218Z 00007KT 26/13 A2998 RMK A01 T02590131  RH  045%=      5-min Rain = 0
KHA2 162219Z 03009KT 26/13 A2998 RMK A01 T02610133  RH  045%=      5-min Rain = 0
KHA2 162220Z 05009KT 26/13 A2998 RMK A01 T02610133  RH  045%=      5-min Rain = 0
KHA2 162221Z 06008KT 26/13 A2998 RMK A01 T02590133  RH  046%=      5-min Rain = 0
KHA2 162222Z 07006KT 26/13 A2998 RMK A01 T02570131  RH  046%=      5-min Rain = 0
KHA2 162223Z 07007KT 25/13 A2998 RMK A01 T02540130  RH  046%=      5-min Rain = 0
KHA2 162224Z 08005KT 25/13 A2998 RMK A01 T02530132  RH  047%=      5-min Rain = 0
KHA2 162225Z 07005KT 25/13 A2998 RMK A01 T02540131  RH  047%=      5-min Rain = 0
KHA2 162226Z 06005KT 25/13 A2998 RMK A01 T02540130  RH  046%=      5-min Rain = 0
KHA2 162227Z 06006KT 25/13 A2998 RMK A01 T02530133  RH  047%=      5-min Rain = 0
KHA2 162228Z 08007KT 25/13 A2998 RMK A01 T02540130  RH  046%=      5-min Rain = 0
KHA2 162229Z 08006KT 25/13 A2998 RMK A01 T02530134  RH  048%=      5-min Rain = 0
KHA2 162230Z 05009KT 26/14 A2998 RMK A01 T02550137  RH  048%=      5-min Rain = 0
KHA2 162231Z 03009KT 26/13 A2998 RMK A01 T02570131  RH  045%=      5-min Rain = 0
KHA2 162232Z 03011KT 26/13 A2998 RMK A01 T02590130  RH  045%=      5-min Rain = 0
KHA2 162233Z 04009KT 26/13 A2998 RMK A01 T02590131  RH  045%=      5-min Rain = 0
KHA2 162234Z 04009KT 26/13 A2998 RMK A01 T02570130  RH  045%=      5-min Rain = 0
KHA2 162235Z 04008KT 26/13 A2998 RMK A01 T02560129  RH  046%=      5-min Rain = 0
KHA2 162236Z 04007KT 26/13 A2998 RMK A01 T02550126  RH  045%=      5-min Rain = 0
KHA2 162237Z 03007KT 25/13 A2998 RMK A01 T02530127  RH  046%=      5-min Rain = 0
KHA2 162238Z 02004KT 25/13 A2998 RMK A01 T02530128  RH  046%=      5-min Rain = 0
KHA2 162239Z 03001KT 25/13 A2998 RMK A01 T02540128  RH  045%=      5-min Rain = 0
KHA2 162240Z 07001KT 26/13 A2997 RMK A01 T02550131  RH  046%=      5-min Rain = 0
KHA2 162241Z 08003KT 26/13 A2998 RMK A01 T02560131  RH  046%=      5-min Rain = 0
KHA2 162242Z 08005KT 26/13 A2997 RMK A01 T02570134  RH  046%=      5-min Rain = 0
KHA2 162243Z 09005KT 26/14 A2997 RMK A01 T02590138  RH  047%=      5-min Rain = 0
KHA2 162244Z 08005KT 26/13 A2997 RMK A01 T02590133  RH  046%=      5-min Rain = 0
KHA2 162245Z 06009KT 26/13 A2997 RMK A01 T02580131  RH  045%=      5-min Rain = 0
KHA2 162246Z 06006KT 26/13 A2997 RMK A01 T02580128  RH  044%=      5-min Rain = 0
KHA2 162247Z 06010KT 26/13 A2997 RMK A01 T02570131  RH  046%=      5-min Rain = 0
KHA2 162248Z 06009KT 26/13 A2997 RMK A01 T02570132  RH  046%=      5-min Rain = 0
KHA2 162249Z 06007KT 26/13 A2997 RMK A01 T02580131  RH  045%=      5-min Rain = 0
KHA2 162250Z 07007KT 26/13 A2997 RMK A01 T02570133  RH  046%=      5-min Rain = 0
KHA2 162251Z 07006KT 26/13 A2997 RMK A01 T02570130  RH  045%=      5-min Rain = 0
KHA2 162252Z 08009KT 26/13 A2997 RMK A01 T02560130  RH  046%=      5-min Rain = 0
KHA2 162253Z 07007KT 26/13 A2997 RMK A01 T02560131  RH  046%=      5-min Rain = 0
KHA2 162254Z 07009KT 26/13 A2997 RMK A01 T02550133  RH  047%=      5-min Rain = 0
KHA2 162255Z 09006KT 26/13 A2997 RMK A01 T02550131  RH  046%=      5-min Rain = 0
KHA2 162256Z 08006G11KT 25/14 A2997 RMK A01 T02540138  RH  049%=      5-min Rain = 0
KHA2 162257Z 08009KT 26/14 A2997 RMK A01 T02550139  RH  049%=      5-min Rain = 0
KHA2 162258Z 08007KT 26/14 A2997 RMK A01 T02560136  RH  047%=      5-min Rain = 0
KHA2 162259Z 08008KT 26/14 A2997 RMK A01 T02550140  RH  049%=      5-min Rain = 0
KHA2 162300Z 09007KT 25/14 A2997 RMK A01 T02540137  RH  048%=      5-min Rain = 0
KHA2 162301Z 10004KT 25/13 A2997 RMK A01 T02520129  RH  046%=      5-min Rain = 0
KHA2 162302Z 09004KT 25/13 A2997 RMK A01 T02500131  RH  048%=      5-min Rain = 0
KHA2 162303Z 09004KT 25/13 A2997 RMK A01 T02500132  RH  048%=      5-min Rain = 0
KHA2 162304Z 07004KT 25/14 A2997 RMK A01 T02510136  RH  049%=      5-min Rain = 0
KHA2 162305Z 05004KT 25/14 A2997 RMK A01 T02530137  RH  049%=      5-min Rain = 0
KHA2 162306Z 05007KT 26/13 A2997 RMK A01 T02560132  RH  046%=      5-min Rain = 0
KHA2 162307Z 03007KT 26/13 A2997 RMK A01 T02570129  RH  045%=      5-min Rain = 0
KHA2 162308Z 04007KT 26/13 A2997 RMK A01 T02580128  RH  045%=      5-min Rain = 0
KHA2 162309Z 04005KT 26/13 A2997 RMK A01 T02580125  RH  044%=      5-min Rain = 0
KHA2 162310Z 04006KT 26/13 A2997 RMK A01 T02570127  RH  044%=      5-min Rain = 0
KHA2 162311Z 03003KT 26/12 A2997 RMK A01 T02580124  RH  043%=      5-min Rain = 0
KHA2 162312Z 05007KT 26/13 A2997 RMK A01 T02580130  RH  045%=      5-min Rain = 0
KHA2 162313Z 04007KT 26/13 A2997 RMK A01 T02590127  RH  044%=      5-min Rain = 0
KHA2 162314Z 05006KT 26/12 A2997 RMK A01 T02570123  RH  043%=      5-min Rain = 0
KHA2 162315Z 07007KT 26/13 A2997 RMK A01 T02560128  RH  045%=      5-min Rain = 0
KHA2 162316Z 08004KT 26/12 A2997 RMK A01 T02560124  RH  044%=      5-min Rain = 0
KHA2 162317Z 06003KT 26/12 A2997 RMK A01 T02550123  RH  044%=      5-min Rain = 0
KHA2 162318Z 02005KT 25/13 A2997 RMK A01 T02540126  RH  045%=      5-min Rain = 0
KHA2 162319Z 04005KT 25/12 A2997 RMK A01 T02540122  RH  044%=      5-min Rain = 0
KHA2 162320Z 04008KT 25/12 A2997 RMK A01 T02540123  RH  044%=      5-min Rain = 0
KHA2 162321Z 04007KT 25/12 A2997 RMK A01 T02530122  RH  044%=      5-min Rain = 0
KHA2 162322Z 05004KT 25/12 A2997 RMK A01 T02520123  RH  045%=      5-min Rain = 0
KHA2 162323Z 03004KT 25/13 A2997 RMK A01 T02510125  RH  045%=      5-min Rain = 0
KHA2 162324Z 04005KT 25/13 A2997 RMK A01 T02510128  RH  046%=      5-min Rain = 0
KHA2 162325Z 06008KT 25/13 A2997 RMK A01 T02510126  RH  046%=      5-min Rain = 0
KHA2 162326Z 07008KT 25/13 A2997 RMK A01 T02510128  RH  046%=      5-min Rain = 0
KHA2 162327Z 05007KT 25/13 A2997 RMK A01 T02520129  RH  046%=      5-min Rain = 0
KHA2 162328Z 06007KT 25/13 A2997 RMK A01 T02530129  RH  046%=      5-min Rain = 0
KHA2 162329Z 06007KT 26/13 A2997 RMK A01 T02550127  RH  045%=      5-min Rain = 0
KHA2 162330Z 07007KT 26/13 A2997 RMK A01 T02570125  RH  044%=      5-min Rain = 0
KHA2 162331Z 07006KT 26/13 A2997 RMK A01 T02570127  RH  045%=      5-min Rain = 0
KHA2 162332Z 08005KT 26/12 A2997 RMK A01 T02560122  RH  043%=      5-min Rain = 0
KHA2 162333Z 06003KT 26/12 A2997 RMK A01 T02550122  RH  044%=      5-min Rain = 0
KHA2 162334Z 06003KT 25/12 A2997 RMK A01 T02540124  RH  044%=      5-min Rain = 0
KHA2 162335Z 08005KT 25/13 A2997 RMK A01 T02540127  RH  045%=      5-min Rain = 0
KHA2 162336Z 07006KT 25/13 A2997 RMK A01 T02540130  RH  046%=      5-min Rain = 0
KHA2 162337Z 08008KT 25/13 A2996 RMK A01 T02540133  RH  047%=      5-min Rain = 0
KHA2 162338Z 09007KT 25/14 A2996 RMK A01 T02540136  RH  048%=      5-min Rain = 0
KHA2 162339Z 10007KT 25/13 A2996 RMK A01 T02540134  RH  047%=      5-min Rain = 0
KHA2 162340Z 09010KT 25/13 A2996 RMK A01 T02530134  RH  048%=      5-min Rain = 0
KHA2 162341Z 09008KT 25/13 A2996 RMK A01 T02520129  RH  046%=      5-min Rain = 0
KHA2 162342Z 08008KT 25/13 A2996 RMK A01 T02510134  RH  048%=      5-min Rain = 0
KHA2 162343Z 08007KT 25/13 A2996 RMK A01 T02520133  RH  048%=      5-min Rain = 0
KHA2 162344Z 09006KT 25/13 A2996 RMK A01 T02520129  RH  046%=      5-min Rain = 0
KHA2 162345Z 09005KT 25/13 A2996 RMK A01 T02520126  RH  045%=      5-min Rain = 0
KHA2 162346Z 11005KT 25/13 A2996 RMK A01 T02520131  RH  047%=      5-min Rain = 0
KHA2 162347Z 09008KT 25/13 A2996 RMK A01 T02540134  RH  047%=      5-min Rain = 0
KHA2 162348Z 10007KT 26/13 A2996 RMK A01 T02550132  RH  046%=      5-min Rain = 0
KHA2 162349Z 10008KT 26/13 A2996 RMK A01 T02560130  RH  046%=      5-min Rain = 0
KHA2 162350Z 11007KT 26/13 A2996 RMK A01 T02560125  RH  044%=      5-min Rain = 0
KHA2 162351Z 12008KT 26/13 A2996 RMK A01 T02550127  RH  045%=      5-min Rain = 0
KHA2 162352Z 11006KT 26/12 A2996 RMK A01 T02550124  RH  044%=      5-min Rain = 0
KHA2 162353Z 11005KT 25/13 A2996 RMK A01 T02540125  RH  045%=      5-min Rain = 0
KHA2 162354Z 12005KT 25/13 A2996 RMK A01 T02540125  RH  045%=      5-min Rain = 0
KHA2 162355Z 08007KT 26/13 A2996 RMK A01 T02550134  RH  047%=      5-min Rain = 0
KHA2 162356Z 05006KT 26/13 A2996 RMK A01 T02560131  RH  046%=      5-min Rain = 0
KHA2 162357Z 06006KT 26/13 A2996 RMK A01 T02570128  RH  045%=      5-min Rain = 0
KHA2 162358Z 08006KT 26/13 A2996 RMK A01 T02570126  RH  044%=      5-min Rain = 0
KHA2 162359Z 10006KT 26/13 A2996 RMK A01 T02570132  RH  046%=      5-min Rain = 0
KHA2 170000Z 10006KT 26/13 A2996 RMK A01 T02570130  RH  045%=      5-min Rain = 0
KHA2 170001Z 08008KT 26/13 A2996 RMK A01 T02570131  RH  046%=      5-min Rain = 0
KHA2 170002Z 08010KT 26/13 A2996 RMK A01 T02570131  RH  046%=      5-min Rain = 0
KHA2 170003Z 08009KT 26/13 A2997 RMK A01 T02560132  RH  046%=      5-min Rain = 0
KHA2 170004Z 08008KT 25/13 A2997 RMK A01 T02540125  RH  045%=      5-min Rain = 0
KHA2 170005Z 09007KT 25/13 A2997 RMK A01 T02520127  RH  046%=      5-min Rain = 0
KHA2 170006Z 09005KT 25/13 A2997 RMK A01 T02500127  RH  046%=      5-min Rain = 0
KHA2 170007Z 09007KT 25/13 A2997 RMK A01 T02490131  RH  048%=      5-min Rain = 0
KHA2 170008Z 08007KT 25/13 A2997 RMK A01 T02490132  RH  048%=      5-min Rain = 0
KHA2 170009Z 07007KT 25/13 A2997 RMK A01 T02490129  RH  047%=      5-min Rain = 0
KHA2 170010Z 05008KT 25/12 A2997 RMK A01 T02490123  RH  045%=      5-min Rain = 0
KHA2 170011Z 04008KT 25/12 A2997 RMK A01 T02500117  RH  043%=      5-min Rain = 0
KHA2 170012Z 05009KT 25/12 A2997 RMK A01 T02500117  RH  043%=      5-min Rain = 0
KHA2 170013Z 07008KT 25/12 A2997 RMK A01 T02510120  RH  044%=      5-min Rain = 0
KHA2 170014Z 07009KT 25/12 A2997 RMK A01 T02520121  RH  044%=      5-min Rain = 0
KHA2 170015Z 06007KT 25/12 A2997 RMK A01 T02520121  RH  044%=      5-min Rain = 0
KHA2 170016Z 05007KT 25/12 A2997 RMK A01 T02520118  RH  043%=      5-min Rain = 0
KHA2 170017Z 06008KT 25/12 A2997 RMK A01 T02520121  RH  044%=      5-min Rain = 0
KHA2 170018Z 07008KT 25/12 A2997 RMK A01 T02520122  RH  044%=      5-min Rain = 0
KHA2 170019Z 06008KT 25/12 A2997 RMK A01 T02520123  RH  045%=      5-min Rain = 0
KHA2 170020Z 06007KT 25/12 A2997 RMK A01 T02520120  RH  044%=      5-min Rain = 0
KHA2 170021Z 06007KT 25/12 A2997 RMK A01 T02520122  RH  044%=      5-min Rain = 0
KHA2 170022Z 07009KT 25/13 A2997 RMK A01 T02530126  RH  045%=      5-min Rain = 0
KHA2 170023Z 08009KT 25/13 A2997 RMK A01 T02520129  RH  046%=      5-min Rain = 0
KHA2 170024Z 08009KT 25/13 A2997 RMK A01 T02500131  RH  047%=      5-min Rain = 0
KHA2 170025Z 08009KT 25/13 A2997 RMK A01 T02490134  RH  049%=      5-min Rain = 0
KHA2 170026Z 08009KT 25/14 A2997 RMK A01 T02480137  RH  050%=      5-min Rain = 0
KHA2 170027Z 07009KT 25/14 A2997 RMK A01 T02460137  RH  051%=      5-min Rain = 0
KHA2 170028Z 09009KT 25/14 A2997 RMK A01 T02450140  RH  052%=      5-min Rain = 0
KHA2 170029Z 11009KT 25/14 A2997 RMK A01 T02450137  RH  051%=      5-min Rain = 0
KHA2 170030Z 10008KT 24/13 A2997 RMK A01 T02440134  RH  050%=      5-min Rain = 0
KHA2 170031Z 10008KT 24/14 A2997 RMK A01 T02440137  RH  051%=      5-min Rain = 0
KHA2 170032Z 09009KT 24/13 A2997 RMK A01 T02440134  RH  050%=      5-min Rain = 0
KHA2 170033Z 08008KT 24/13 A2997 RMK A01 T02440133  RH  050%=      5-min Rain = 0
KHA2 170034Z 08007KT 24/13 A2997 RMK A01 T02430131  RH  050%=      5-min Rain = 0
KHA2 170035Z 09007KT 24/13 A2997 RMK A01 T02420130  RH  050%=      5-min Rain = 0
KHA2 170036Z 11007KT 24/13 A2997 RMK A01 T02420130  RH  049%=      5-min Rain = 0
KHA2 170037Z 10009KT 24/13 A2997 RMK A01 T02420126  RH  048%=      5-min Rain = 0
KHA2 170038Z 10008KT 24/13 A2997 RMK A01 T02410127  RH  049%=      5-min Rain = 0
KHA2 170039Z 11009KT 24/13 A2997 RMK A01 T02410126  RH  049%=      5-min Rain = 0
KHA2 170040Z 10008KT 24/13 A2997 RMK A01 T02400128  RH  049%=      5-min Rain = 0
KHA2 170041Z 11009KT 24/13 A2997 RMK A01 T02400126  RH  049%=      5-min Rain = 0
KHA2 170042Z 11010KT 24/13 A2997 RMK A01 T02400125  RH  048%=      5-min Rain = 0
KHA2 170043Z 10008KT 24/13 A2997 RMK A01 T02400127  RH  049%=      5-min Rain = 0
KHA2 170044Z 10007KT 24/13 A2997 RMK A01 T02400126  RH  049%=      5-min Rain = 0
KHA2 170045Z 10008KT 24/13 A2997 RMK A01 T02410132  RH  051%=      5-min Rain = 0
KHA2 170046Z 10009KT 24/13 A2997 RMK A01 T02400126  RH  049%=      5-min Rain = 0
KHA2 170047Z 10009KT 24/13 A2997 RMK A01 T02410127  RH  049%=      5-min Rain = 0
KHA2 170048Z 09009KT 24/13 A2997 RMK A01 T02420130  RH  049%=      5-min Rain = 0
KHA2 170049Z 09009KT 24/13 A2998 RMK A01 T02420129  RH  049%=      5-min Rain = 0
KHA2 170050Z 09010KT 24/13 A2998 RMK A01 T02430132  RH  050%=      5-min Rain = 0
KHA2 170051Z 08010KT 24/13 A2998 RMK A01 T02440131  RH  049%=      5-min Rain = 0
KHA2 170052Z 08010KT 24/13 A2998 RMK A01 T02430132  RH  050%=      5-min Rain = 0
KHA2 170053Z 08011KT 24/14 A2998 RMK A01 T02430135  RH  051%=      5-min Rain = 0
KHA2 170054Z 08010KT 24/14 A2998 RMK A01 T02430137  RH  052%=      5-min Rain = 0
KHA2 170055Z 08010KT 24/14 A2998 RMK A01 T02420135  RH  051%=      5-min Rain = 0
KHA2 170056Z 08011KT 24/14 A2998 RMK A01 T02420137  RH  052%=      5-min Rain = 0
KHA2 170057Z 08011KT 24/14 A2998 RMK A01 T02410138  RH  052%=      5-min Rain = 0
KHA2 170058Z 08010KT 24/14 A2998 RMK A01 T02410138  RH  053%=      5-min Rain = 0
KHA2 170059Z 08012KT 24/14 A2998 RMK A01 T02410140  RH  053%=      5-min Rain = 0
KHA2 170100Z 08011KT 24/14 A2998 RMK A01 T02400139  RH  053%=      5-min Rain = 0
KHA2 170101Z 08012KT 24/14 A2998 RMK A01 T02400141  RH  054%=      5-min Rain = 0
KHA2 170102Z 08010KT 24/14 A2998 RMK A01 T02400143  RH  055%=      5-min Rain = 0
KHA2 170103Z 08011KT 24/14 A2998 RMK A01 T02400143  RH  055%=      5-min Rain = 0
KHA2 170104Z 08011KT 24/14 A2998 RMK A01 T02400141  RH  054%=      5-min Rain = 0
KHA2 170105Z 08011KT 24/14 A2998 RMK A01 T02390142  RH  055%=      5-min Rain = 0
KHA2 170106Z 08010KT 24/14 A2998 RMK A01 T02390142  RH  055%=      5-min Rain = 0
KHA2 170107Z 08011KT 24/14 A2998 RMK A01 T02390141  RH  054%=      5-min Rain = 0
KHA2 170108Z 08012KT 24/14 A2998 RMK A01 T02380139  RH  054%=      5-min Rain = 0
KHA2 170109Z 08011KT 24/14 A2998 RMK A01 T02380139  RH  054%=      5-min Rain = 0
KHA2 170110Z 08010KT 24/14 A2998 RMK A01 T02380139  RH  054%=      5-min Rain = 0
KHA2 170111Z 08012KT 24/14 A2998 RMK A01 T02380140  RH  054%=      5-min Rain = 0
KHA2 170112Z 08011KT 24/14 A2998 RMK A01 T02370139  RH  054%=      5-min Rain = 0
KHA2 170113Z 08011KT 24/14 A2998 RMK A01 T02370142  RH  055%=      5-min Rain = 0
KHA2 170114Z 08011KT 24/14 A2998 RMK A01 T02360141  RH  055%=      5-min Rain = 0
KHA2 170115Z 08010KT 24/14 A2998 RMK A01 T02360141  RH  055%=      5-min Rain = 0
KHA2 170116Z 08008KT 24/15 A2998 RMK A01 T02360145  RH  056%=      5-min Rain = 0
KHA2 170117Z 08009KT 24/14 A2998 RMK A01 T02360142  RH  056%=      5-min Rain = 0
KHA2 170118Z 08009KT 24/14 A2999 RMK A01 T02360141  RH  055%=      5-min Rain = 0
KHA2 170119Z 08011KT 24/14 A2999 RMK A01 T02350140  RH  055%=      5-min Rain = 0
KHA2 170120Z 08011KT 24/14 A2999 RMK A01 T02350138  RH  055%=      5-min Rain = 0
KHA2 170121Z 08010KT 23/14 A2999 RMK A01 T02340139  RH  055%=      5-min Rain = 0
KHA2 170122Z 08009KT 23/14 A2999 RMK A01 T02340140  RH  055%=      5-min Rain = 0
KHA2 170123Z 08011KT 23/14 A2999 RMK A01 T02330140  RH  056%=      5-min Rain = 0
KHA2 170124Z 08008KT 23/14 A2999 RMK A01 T02330139  RH  056%=      5-min Rain = 0
KHA2 170125Z 08009KT 23/14 A2999 RMK A01 T02330142  RH  057%=      5-min Rain = 0
KHA2 170126Z 08009KT 23/14 A2999 RMK A01 T02330141  RH  056%=      5-min Rain = 0
KHA2 170127Z 08009KT 23/14 A2999 RMK A01 T02320141  RH  057%=      5-min Rain = 0
KHA2 170128Z 08008KT 23/14 A2999 RMK A01 T02310143  RH  057%=      5-min Rain = 0
KHA2 170129Z 08009KT 23/14 A2999 RMK A01 T02310142  RH  057%=      5-min Rain = 0
KHA2 170130Z 08010KT 23/14 A2999 RMK A01 T02300143  RH  058%=      5-min Rain = 0
KHA2 170131Z 08010KT 23/14 A2999 RMK A01 T02300141  RH  057%=      5-min Rain = 0
KHA2 170132Z 08011KT 23/14 A2999 RMK A01 T02290141  RH  058%=      5-min Rain = 0
KHA2 170133Z 08009KT 23/14 A2999 RMK A01 T02280142  RH  058%=      5-min Rain = 0
KHA2 170134Z 08009KT 23/14 A2999 RMK A01 T02270143  RH  059%=      5-min Rain = 0
KHA2 170135Z 08009KT 23/14 A2999 RMK A01 T02270141  RH  058%=      5-min Rain = 0
KHA2 170136Z 08010KT 23/14 A2999 RMK A01 T02260141  RH  059%=      5-min Rain = 0
KHA2 170137Z 08010KT 23/14 A2999 RMK A01 T02260141  RH  059%=      5-min Rain = 0
KHA2 170138Z 08010KT 23/14 A2999 RMK A01 T02250141  RH  059%=      5-min Rain = 0
KHA2 170139Z 08011KT 22/14 A2999 RMK A01 T02240140  RH  059%=      5-min Rain = 0
KHA2 170140Z 08011KT 22/14 A2999 RMK A01 T02240140  RH  059%=      5-min Rain = 0
KHA2 170141Z 08010KT 22/14 A2999 RMK A01 T02230139  RH  059%=      5-min Rain = 0
KHA2 170142Z 08010KT 22/14 A2999 RMK A01 T02230140  RH  059%=      5-min Rain = 0
KHA2 170143Z 08010KT 22/14 A2999 RMK A01 T02230140  RH  060%=      5-min Rain = 0
KHA2 170144Z 08009KT 22/14 A2999 RMK A01 T02220140  RH  060%=      5-min Rain = 0
KHA2 170145Z 08009KT 22/14 A2999 RMK A01 T02210140  RH  060%=      5-min Rain = 0
KHA2 170146Z 08009KT 22/14 A2999 RMK A01 T02210141  RH  060%=      5-min Rain = 0
KHA2 170147Z 08008KT 22/14 A2999 RMK A01 T02200141  RH  061%=      5-min Rain = 0
KHA2 170148Z 08008KT 22/14 A2999 RMK A01 T02190141  RH  061%=      5-min Rain = 0
KHA2 170149Z 08008KT 22/14 A2999 RMK A01 T02180140  RH  061%=      5-min Rain = 0
KHA2 170150Z 08008KT 22/14 A2999 RMK A01 T02180141  RH  062%=      5-min Rain = 0
KHA2 170151Z 08008KT 22/14 A2999 RMK A01 T02170141  RH  062%=      5-min Rain = 0
KHA2 170152Z 08009KT 22/14 A2999 RMK A01 T02170141  RH  062%=      5-min Rain = 0
KHA2 170153Z 08009KT 22/14 A2999 RMK A01 T02160140  RH  062%=      5-min Rain = 0
KHA2 170154Z 08008KT 22/14 A2999 RMK A01 T02160139  RH  062%=      5-min Rain = 0
KHA2 170155Z 08008KT 22/14 A2999 RMK A01 T02160139  RH  062%=      5-min Rain = 0
KHA2 170156Z 08008KT 22/14 A2999 RMK A01 T02150140  RH  062%=      5-min Rain = 0
KHA2 170157Z 08008KT 21/14 A2999 RMK A01 T02140140  RH  063%=      5-min Rain = 0
KHA2 170158Z 08008KT 21/14 A30 RMK A01 T02140140  RH  063%=      5-min Rain = 0
KHA2 170159Z 08008KT 21/14 A30 RMK A01 T02130138  RH  063%=      5-min Rain = 0
KHA2 170200Z 08007KT 21/14 A30 RMK A01 T02120137  RH  062%=      5-min Rain = 0
KHA2 170201Z 08008KT 21/14 A30 RMK A01 T02120139  RH  063%=      5-min Rain = 0
KHA2 170202Z 08008KT 21/14 A30 RMK A01 T02110139  RH  063%=      5-min Rain = 0
KHA2 170203Z 08008KT 21/14 A30 RMK A01 T02100138  RH  063%=      5-min Rain = 0
KHA2 170204Z 08008KT 21/14 A30 RMK A01 T02100139  RH  064%=      5-min Rain = 0
KHA2 170205Z 08008KT 21/14 A30 RMK A01 T02100138  RH  064%=      5-min Rain = 0
KHA2 170206Z 09008KT 21/14 A30 RMK A01 T02090137  RH  064%=      5-min Rain = 0
KHA2 170207Z 09008KT 21/14 A30 RMK A01 T02090138  RH  064%=      5-min Rain = 0
KHA2 170208Z 09008KT 21/14 A30 RMK A01 T02080139  RH  064%=      5-min Rain = 0
KHA2 170209Z 09007KT 21/14 A30 RMK A01 T02070139  RH  065%=      5-min Rain = 0
KHA2 170210Z 09007KT 21/14 A30 RMK A01 T02060139  RH  065%=      5-min Rain = 0
KHA2 170211Z 09007KT 21/14 A30 RMK A01 T02060140  RH  066%=      5-min Rain = 0
KHA2 170212Z 09007KT 21/14 A30 RMK A01 T02050140  RH  066%=      5-min Rain = 0
KHA2 170213Z 09007KT 20/14 A30 RMK A01 T02040139  RH  066%=      5-min Rain = 0
KHA2 170214Z 09007KT 20/14 A30 RMK A01 T02030139  RH  066%=      5-min Rain = 0
KHA2 170215Z 09007KT 20/14 A30 RMK A01 T02040140  RH  067%=      5-min Rain = 0
KHA2 170216Z 09006KT 20/14 A30 RMK A01 T02030140  RH  067%=      5-min Rain = 0
KHA2 170217Z 09007KT 20/14 A30 RMK A01 T02020139  RH  067%=      5-min Rain = 0
KHA2 170218Z 09006KT 20/14 A30 RMK A01 T02020139  RH  067%=      5-min Rain = 0
KHA2 170219Z 09006KT 20/14 A30 RMK A01 T02020140  RH  067%=      5-min Rain = 0
KHA2 170220Z 08006KT 20/14 A30 RMK A01 T02010139  RH  068%=      5-min Rain = 0
KHA2 170221Z 09006KT 20/14 A30 RMK A01 T02000139  RH  068%=      5-min Rain = 0
KHA2 170222Z 09006KT 20/14 A30 RMK A01 T02000140  RH  068%=      5-min Rain = 0
KHA2 170223Z 09006KT 20/14 A30 RMK A01 T02000140  RH  068%=      5-min Rain = 0
KHA2 170224Z 09006KT 20/14 A30 RMK A01 T02000140  RH  068%=      5-min Rain = 0
KHA2 170225Z 09006KT 20/14 A30 RMK A01 T01990140  RH  069%=      5-min Rain = 0
KHA2 170226Z 09006KT 20/14 A30 RMK A01 T01990139  RH  068%=      5-min Rain = 0
KHA2 170227Z 09006KT 20/14 A30 RMK A01 T01980140  RH  069%=      5-min Rain = 0
KHA2 170228Z 09005KT 20/14 A30 RMK A01 T01980140  RH  069%=      5-min Rain = 0
KHA2 170229Z 09005KT 20/14 A30 RMK A01 T01970140  RH  070%=      5-min Rain = 0
KHA2 170230Z 10005KT 20/14 A30 RMK A01 T01960140  RH  070%=      5-min Rain = 0
KHA2 170231Z 10005KT 20/14 A30 RMK A01 T01950141  RH  071%=      5-min Rain = 0
KHA2 170232Z 10006KT 20/14 A30 RMK A01 T01950140  RH  071%=      5-min Rain = 0
KHA2 170233Z 10005KT 19/14 A30 RMK A01 T01940139  RH  071%=      5-min Rain = 0
KHA2 170234Z 10005KT 19/14 A30 RMK A01 T01930139  RH  071%=      5-min Rain = 0
KHA2 170235Z 10005KT 19/14 A30 RMK A01 T01920139  RH  071%=      5-min Rain = 0
KHA2 170236Z 10005KT 19/14 A30 RMK A01 T01920140  RH  072%=      5-min Rain = 0
KHA2 170237Z 10005KT 19/14 A30 RMK A01 T01910140  RH  072%=      5-min Rain = 0
KHA2 170238Z 10005KT 19/14 A3001 RMK A01 T01910140  RH  072%=      5-min Rain = 0
KHA2 170239Z 10005KT 19/14 A3001 RMK A01 T01910141  RH  072%=      5-min Rain = 0
KHA2 170240Z 10005KT 19/14 A3001 RMK A01 T01910142  RH  073%=      5-min Rain = 0
KHA2 170241Z 10005KT 19/14 A3001 RMK A01 T01910142  RH  073%=      5-min Rain = 0
KHA2 170242Z 09005KT 19/14 A3001 RMK A01 T01910143  RH  074%=      5-min Rain = 0
KHA2 170243Z 09005KT 19/14 A3001 RMK A01 T01900143  RH  074%=      5-min Rain = 0
KHA2 170244Z 09005KT 19/14 A3001 RMK A01 T01910142  RH  073%=      5-min Rain = 0
KHA2 170245Z 09005KT 19/14 A3001 RMK A01 T01910142  RH  073%=      5-min Rain = 0
KHA2 170246Z 09005KT 19/14 A3001 RMK A01 T01920142  RH  073%=      5-min Rain = 0
KHA2 170247Z 09004KT 19/14 A3001 RMK A01 T01920143  RH  073%=      5-min Rain = 0
KHA2 170248Z 09005KT 19/14 A3001 RMK A01 T01920144  RH  074%=      5-min Rain = 0
KHA2 170249Z 09005KT 19/14 A3001 RMK A01 T01910144  RH  074%=      5-min Rain = 0
KHA2 170250Z 09005KT 19/14 A3001 RMK A01 T01910144  RH  074%=      5-min Rain = 0
KHA2 170251Z 09005KT 19/15 A3001 RMK A01 T01910145  RH  075%=      5-min Rain = 0
KHA2 170252Z 09005KT 19/15 A3001 RMK A01 T01910145  RH  075%=      5-min Rain = 0
KHA2 170253Z 09005KT 19/15 A3001 RMK A01 T01910145  RH  075%=      5-min Rain = 0
KHA2 170254Z 09005KT 19/15 A3001 RMK A01 T01910145  RH  075%=      5-min Rain = 0
KHA2 170255Z 09005KT 19/15 A3001 RMK A01 T01900145  RH  075%=      5-min Rain = 0
KHA2 170256Z 09005KT 19/15 A3001 RMK A01 T01900145  RH  075%=      5-min Rain = 0
KHA2 170257Z 08005KT 19/15 A3001 RMK A01 T01890145  RH  076%=      5-min Rain = 0
KHA2 170258Z 09005KT 19/15 A3001 RMK A01 T01890145  RH  076%=      5-min Rain = 0
KHA2 170259Z 08005KT 19/15 A3001 RMK A01 T01890145  RH  076%=      5-min Rain = 0
KHA2 170300Z 09005KT 19/14 A3001 RMK A01 T01880144  RH  076%=      5-min Rain = 0
KHA2 170301Z 09005KT 19/15 A3001 RMK A01 T01880145  RH  076%=      5-min Rain = 0
KHA2 170302Z 08006KT 19/15 A3001 RMK A01 T01870145  RH  076%=      5-min Rain = 0
KHA2 170303Z 09006KT 19/15 A3001 RMK A01 T01870145  RH  077%=      5-min Rain = 0
KHA2 170304Z 09006KT 19/15 A3001 RMK A01 T01860145  RH  077%=      5-min Rain = 0
KHA2 170305Z 09006KT 19/15 A3001 RMK A01 T01860145  RH  077%=      5-min Rain = 0
KHA2 170306Z 09006KT 19/14 A3001 RMK A01 T01850144  RH  077%=      5-min Rain = 0
KHA2 170307Z 09006KT 19/14 A3001 RMK A01 T01850144  RH  077%=      5-min Rain = 0
KHA2 170308Z 09006KT 18/14 A3001 RMK A01 T01840144  RH  077%=      5-min Rain = 0
KHA2 170309Z 10006KT 18/14 A3001 RMK A01 T01830144  RH  078%=      5-min Rain = 0
KHA2 170310Z 09006KT 18/14 A3001 RMK A01 T01830143  RH  078%=      5-min Rain = 0
KHA2 170311Z 09006KT 18/14 A3001 RMK A01 T01820143  RH  078%=      5-min Rain = 0
KHA2 170312Z 09006KT 18/14 A3001 RMK A01 T01810143  RH  078%=      5-min Rain = 0
KHA2 170313Z 09007KT 18/14 A3001 RMK A01 T01810143  RH  078%=      5-min Rain = 0
KHA2 170314Z 09007KT 18/14 A3001 RMK A01 T01810144  RH  079%=      5-min Rain = 0
KHA2 170315Z 09007KT 18/15 A3001 RMK A01 T01810145  RH  079%=      5-min Rain = 0
KHA2 170316Z 09007KT 18/15 A3001 RMK A01 T01810145  RH  080%=      5-min Rain = 0
KHA2 170317Z 09007KT 18/15 A3001 RMK A01 T01810146  RH  080%=      5-min Rain = 0
KHA2 170318Z 09007KT 18/15 A3001 RMK A01 T01820147  RH  080%=      5-min Rain = 0
KHA2 170319Z 09007KT 18/15 A3001 RMK A01 T01820147  RH  080%=      5-min Rain = 0
KHA2 170320Z 09007KT 18/15 A3001 RMK A01 T01820147  RH  080%=      5-min Rain = 0
KHA2 170321Z 09007KT 18/15 A3001 RMK A01 T01820147  RH  080%=      5-min Rain = 0
KHA2 170322Z 09007KT 18/15 A3001 RMK A01 T01830148  RH  080%=      5-min Rain = 0
KHA2 170323Z 09007KT 18/15 A3001 RMK A01 T01830148  RH  080%=      5-min Rain = 0
KHA2 170324Z 09007KT 18/15 A3002 RMK A01 T01830147  RH  080%=      5-min Rain = 0
KHA2 170325Z 09007KT 18/15 A3002 RMK A01 T01830148  RH  080%=      5-min Rain = 0
KHA2 170326Z 09007KT 18/15 A3002 RMK A01 T01830147  RH  080%=      5-min Rain = 0
KHA2 170327Z 09007KT 18/15 A3002 RMK A01 T01840148  RH  079%=      5-min Rain = 0
KHA2 170328Z 09007KT 18/15 A3002 RMK A01 T01830148  RH  080%=      5-min Rain = 0
KHA2 170329Z 10007KT 18/15 A3002 RMK A01 T01830148  RH  080%=      5-min Rain = 0
KHA2 170330Z 10007KT 18/15 A3002 RMK A01 T01840148  RH  080%=      5-min Rain = 0
KHA2 170331Z 10006KT 18/15 A3002 RMK A01 T01830148  RH  080%=      5-min Rain = 0
KHA2 170332Z 09006KT 18/15 A3002 RMK A01 T01840148  RH  080%=      5-min Rain = 0
KHA2 170333Z 09006KT 18/15 A3002 RMK A01 T01830149  RH  080%=      5-min Rain = 0
KHA2 170334Z 09007KT 18/15 A3002 RMK A01 T01830149  RH  080%=      5-min Rain = 0
KHA2 170335Z 09007KT 18/15 A3002 RMK A01 T01840149  RH  080%=      5-min Rain = 0
KHA2 170336Z 09006KT 18/15 A3002 RMK A01 T01840149  RH  080%=      5-min Rain = 0
KHA2 170337Z 09007KT 18/15 A3002 RMK A01 T01840149  RH  080%=      5-min Rain = 0
KHA2 170338Z 09007KT 18/15 A3002 RMK A01 T01840149  RH  080%=      5-min Rain = 0
KHA2 170339Z 09007KT 18/15 A3002 RMK A01 T01840148  RH  080%=      5-min Rain = 0
KHA2 170340Z 09007KT 18/15 A3003 RMK A01 T01840149  RH  080%=      5-min Rain = 0
KHA2 170341Z 09007KT 18/15 A3003 RMK A01 T01840149  RH  080%=      5-min Rain = 0
KHA2 170342Z 09008KT 18/15 A3003 RMK A01 T01840149  RH  080%=      5-min Rain = 0
KHA2 170343Z 09008KT 18/15 A3003 RMK A01 T01830149  RH  080%=      5-min Rain = 0
KHA2 170344Z 09008KT 18/15 A3003 RMK A01 T01840149  RH  080%=      5-min Rain = 0
KHA2 170345Z 09008KT 18/15 A3003 RMK A01 T01830148  RH  080%=      5-min Rain = 0
KHA2 170346Z 09008KT 18/15 A3003 RMK A01 T01840149  RH  080%=      5-min Rain = 0
KHA2 170347Z 09008KT 18/15 A3003 RMK A01 T01830148  RH  080%=      5-min Rain = 0
KHA2 170348Z 09008KT 18/15 A3003 RMK A01 T01830149  RH  080%=      5-min Rain = 0
KHA2 170349Z 09008KT 18/15 A3003 RMK A01 T01830148  RH  080%=      5-min Rain = 0
KHA2 170350Z 09007KT 18/15 A3003 RMK A01 T01830148  RH  080%=      5-min Rain = 0
KHA2 170351Z 09008KT 18/15 A3003 RMK A01 T01830148  RH  080%=      5-min Rain = 0
KHA2 170352Z 09007KT 18/15 A3003 RMK A01 T01830148  RH  080%=      5-min Rain = 0
KHA2 170353Z 09007KT 18/15 A3003 RMK A01 T01830148  RH  080%=      5-min Rain = 0
KHA2 170354Z 09007KT 18/15 A3003 RMK A01 T01820148  RH  081%=      5-min Rain = 0
KHA2 170355Z 09007KT 18/15 A3003 RMK A01 T01820148  RH  080%=      5-min Rain = 0
KHA2 170356Z 09007KT 18/15 A3003 RMK A01 T01830148  RH  080%=      5-min Rain = 0
KHA2 170357Z 09007KT 18/15 A3003 RMK A01 T01830148  RH  080%=      5-min Rain = 0
KHA2 170358Z 09007KT 18/15 A3003 RMK A01 T01830148  RH  080%=      5-min Rain = 0
KHA2 170359Z 08007KT 18/15 A3003 RMK A01 T01830149  RH  081%=      5-min Rain = 0
KHA2 170400Z 08006KT 18/15 A3003 RMK A01 T01820149  RH  081%=      5-min Rain = 0
KHA2 170401Z 08007KT 18/15 A3003 RMK A01 T01810148  RH  081%=      5-min Rain = 0
KHA2 170402Z 08006KT 18/15 A3003 RMK A01 T01800148  RH  081%=      5-min Rain = 0
KHA2 170403Z 08006KT 18/15 A3003 RMK A01 T01790147  RH  082%=      5-min Rain = 0
KHA2 170404Z 08007KT 18/15 A3003 RMK A01 T01770146  RH  082%=      5-min Rain = 0
KHA2 170405Z 08007KT 18/15 A3003 RMK A01 T01760146  RH  083%=      5-min Rain = 0
KHA2 170406Z 09007KT 18/15 A3003 RMK A01 T01750146  RH  083%=      5-min Rain = 0
KHA2 170407Z 08007KT 17/15 A3003 RMK A01 T01740146  RH  084%=      5-min Rain = 0
KHA2 170408Z 08007KT 17/15 A3003 RMK A01 T01730145  RH  084%=      5-min Rain = 0
KHA2 170409Z 08007KT 17/15 A3003 RMK A01 T01720145  RH  084%=      5-min Rain = 0
KHA2 170410Z 08007KT 17/15 A3003 RMK A01 T01710145  RH  084%=      5-min Rain = 0
KHA2 170411Z 08007KT 17/15 A3003 RMK A01 T01710145  RH  085%=      5-min Rain = 0
KHA2 170412Z 08007KT 17/15 A3003 RMK A01 T01710145  RH  085%=      5-min Rain = 0
KHA2 170413Z 08007KT 17/15 A3003 RMK A01 T01710146  RH  085%=      5-min Rain = 0
KHA2 170414Z 08007KT 17/15 A3003 RMK A01 T01710147  RH  086%=      5-min Rain = 0
KHA2 170415Z 08008KT 17/15 A3003 RMK A01 T01710147  RH  086%=      5-min Rain = 0
KHA2 170416Z 08007KT 17/15 A3003 RMK A01 T01710147  RH  086%=      5-min Rain = 0
KHA2 170417Z 08007KT 17/15 A3003 RMK A01 T01710148  RH  086%=      5-min Rain = 0
KHA2 170418Z 08007KT 17/15 A3003 RMK A01 T01710147  RH  086%=      5-min Rain = 0
KHA2 170419Z 08007KT 17/15 A3003 RMK A01 T01710147  RH  086%=      5-min Rain = 0
KHA2 170420Z 09007KT 17/15 A3003 RMK A01 T01710147  RH  086%=      5-min Rain = 0
KHA2 170421Z 09007KT 17/15 A3004 RMK A01 T01710148  RH  086%=      5-min Rain = 0
KHA2 170422Z 09007KT 17/15 A3004 RMK A01 T01710148  RH  086%=      5-min Rain = 0
KHA2 170423Z 09006KT 17/15 A3004 RMK A01 T01710148  RH  086%=      5-min Rain = 0
KHA2 170424Z 09006KT 17/15 A3004 RMK A01 T01720148  RH  086%=      5-min Rain = 0
KHA2 170425Z 09006KT 17/15 A3004 RMK A01 T01720148  RH  086%=      5-min Rain = 0
KHA2 170426Z 09006KT 17/15 A3004 RMK A01 T01710147  RH  086%=      5-min Rain = 0
KHA2 170427Z 10006KT 17/15 A3004 RMK A01 T01710147  RH  086%=      5-min Rain = 0
KHA2 170428Z 10006KT 17/15 A3004 RMK A01 T01700147  RH  086%=      5-min Rain = 0
KHA2 170429Z 10006KT 17/15 A3004 RMK A01 T01700147  RH  086%=      5-min Rain = 0
KHA2 170430Z 10006KT 17/15 A3004 RMK A01 T01700147  RH  086%=      5-min Rain = 0
KHA2 170431Z 10006KT 17/15 A3004 RMK A01 T01700147  RH  086%=      5-min Rain = 0
KHA2 170432Z 10006KT 17/15 A3004 RMK A01 T01700146  RH  086%=      5-min Rain = 0
KHA2 170433Z 10006KT 17/15 A3004 RMK A01 T01710147  RH  086%=      5-min Rain = 0
KHA2 170434Z 09006KT 17/15 A3004 RMK A01 T01710147  RH  086%=      5-min Rain = 0
KHA2 170435Z 09007KT 17/15 A3004 RMK A01 T01720147  RH  086%=      5-min Rain = 0
KHA2 170436Z 09007KT 17/15 A3004 RMK A01 T01730148  RH  085%=      5-min Rain = 0
KHA2 170437Z 09007KT 17/15 A3004 RMK A01 T01740148  RH  085%=      5-min Rain = 0
KHA2 170438Z 09007KT 17/15 A3004 RMK A01 T01730148  RH  085%=      5-min Rain = 0
KHA2 170439Z 09007KT 17/15 A3004 RMK A01 T01730148  RH  085%=      5-min Rain = 0
KHA2 170440Z 09007KT 17/15 A3004 RMK A01 T01740148  RH  085%=      5-min Rain = 0
KHA2 170441Z 09006KT 17/15 A3004 RMK A01 T01740148  RH  085%=      5-min Rain = 0
KHA2 170442Z 10006KT 18/15 A3004 RMK A01 T01750149  RH  085%=      5-min Rain = 0
KHA2 170443Z 10006KT 18/15 A3004 RMK A01 T01750149  RH  085%=      5-min Rain = 0
KHA2 170444Z 10006KT 18/15 A3004 RMK A01 T01750149  RH  085%=      5-min Rain = 0
KHA2 170445Z 10006KT 18/15 A3004 RMK A01 T01750149  RH  085%=      5-min Rain = 0
KHA2 170446Z 10006KT 18/15 A3004 RMK A01 T01750149  RH  085%=      5-min Rain = 0
KHA2 170447Z 10006KT 18/15 A3004 RMK A01 T01760149  RH  085%=      5-min Rain = 0
KHA2 170448Z 10005KT 18/15 A3004 RMK A01 T01760150  RH  084%=      5-min Rain = 0
KHA2 170449Z 10006KT 18/15 A3004 RMK A01 T01770150  RH  084%=      5-min Rain = 0
KHA2 170450Z 10006KT 18/15 A3004 RMK A01 T01770150  RH  084%=      5-min Rain = 0
KHA2 170451Z 10005KT 18/15 A3004 RMK A01 T01770150  RH  084%=      5-min Rain = 0
KHA2 170452Z 10005KT 18/15 A3004 RMK A01 T01770150  RH  084%=      5-min Rain = 0
KHA2 170453Z 10005KT 18/15 A3004 RMK A01 T01770150  RH  085%=      5-min Rain = 0
KHA2 170454Z 10005KT 18/15 A3004 RMK A01 T01760150  RH  085%=      5-min Rain = 0
KHA2 170455Z 10005KT 18/15 A3004 RMK A01 T01750149  RH  085%=      5-min Rain = 0
KHA2 170456Z 11005KT 17/15 A3004 RMK A01 T01740147  RH  084%=      5-min Rain = 0
KHA2 170457Z 11005KT 17/15 A3004 RMK A01 T01730146  RH  084%=      5-min Rain = 0
KHA2 170458Z 11006KT 17/14 A3004 RMK A01 T01720144  RH  084%=      5-min Rain = 0
KHA2 170459Z 11006KT 17/14 A3004 RMK A01 T01700144  RH  085%=      5-min Rain = 0

Page generated in 0.0858 seconds.